Wetterdaten: Dienstag, 21.09.2021
Datum Zeit Temp. Aussen Temp. o. S. Temp +5cm Feuchte Auss Luftdruck Regen Sonnenschein Regendauer Solar Windben Empfang
21.09.2021 00:00 13,2 C 12,8 C 10,6 C 73 % 1025,6 hPa 0,0 l/m 0 min 0 min 0 W/m 6,4 km/h (2 Bft) 97,87 %
21.09.2021 00:02 13,1 C 12,8 C 10,0 C 73 % 1025,6 hPa 0,0 l/m 0 min 0 min 0 W/m 6,4 km/h (2 Bft) 97,62 %
21.09.2021 00:04 13,1 C 12,2 C 10,0 C 73 % 1025,7 hPa 0,0 l/m 0 min 0 min 0 W/m 6,4 km/h (2 Bft) 100,00 %
21.09.2021 00:08 13,1 C 12,2 C 10,0 C 73 % 1025,7 hPa 0,0 l/m 0 min 0 min 0 W/m 9,7 km/h (2 Bft) 100,00 %
21.09.2021 00:10 13,1 C 12,2 C 10,0 C 73 % 1025,7 hPa 0,0 l/m 0 min 0 min 0 W/m 6,4 km/h (2 Bft) 100,00 %
21.09.2021 00:12 13,1 C 12,2 C 10,6 C 73 % 1025,8 hPa 0,0 l/m 0 min 0 min 0 W/m 6,4 km/h (2 Bft) 100,00 %
21.09.2021 00:14 13,1 C 12,2 C 10,0 C 73 % 1025,7 hPa 0,0 l/m 0 min 0 min 0 W/m 6,4 km/h (2 Bft) 100,00 %
21.09.2021 00:16 13,1 C 12,2 C 10,0 C 73 % 1025,7 hPa 0,0 l/m 0 min 0 min 0 W/m 6,4 km/h (2 Bft) 100,00 %
21.09.2021 00:18 13,1 C 12,2 C 10,0 C 74 % 1025,8 hPa 0,0 l/m 0 min 0 min 0 W/m 6,4 km/h (2 Bft) 100,00 %
21.09.2021 00:20 13,1 C 12,2 C 10,0 C 74 % 1025,8 hPa 0,0 l/m 0 min 0 min 0 W/m 3,2 km/h (1 Bft) 97,87 %
21.09.2021 00:22 13,0 C 12,2 C 10,0 C 74 % 1025,9 hPa 0,0 l/m 0 min 0 min 0 W/m 3,2 km/h (1 Bft) 100,00 %
21.09.2021 00:24 13,0 C 12,2 C 10,0 C 74 % 1025,9 hPa 0,0 l/m 0 min 0 min 0 W/m 6,4 km/h (2 Bft) 97,87 %
21.09.2021 00:26 13,0 C 12,2 C 10,0 C 74 % 1025,9 hPa 0,0 l/m 0 min 0 min 0 W/m 6,4 km/h (2 Bft) 97,87 %
21.09.2021 00:28 13,0 C 12,2 C 10,0 C 74 % 1025,8 hPa 0,0 l/m 0 min 0 min 0 W/m 3,2 km/h (1 Bft) 95,65 %
21.09.2021 00:30 13,0 C 12,2 C 10,0 C 74 % 1025,9 hPa 0,0 l/m 0 min 0 min 0 W/m 6,4 km/h (2 Bft) 100,00 %
21.09.2021 00:32 13,0 C 12,2 C 10,0 C 74 % 1025,8 hPa 0,0 l/m 0 min 0 min 0 W/m 6,4 km/h (2 Bft) 96,08 %
21.09.2021 00:34 13,0 C 12,2 C 10,0 C 75 % 1025,8 hPa 0,0 l/m 0 min 0 min 0 W/m 6,4 km/h (2 Bft) 97,83 %
21.09.2021 00:36 13,0 C 12,2 C 10,0 C 75 % 1025,9 hPa 0,0 l/m 0 min 0 min 0 W/m 6,4 km/h (2 Bft) 95,74 %
21.09.2021 00:38 13,0 C 12,2 C 10,0 C 75 % 1025,8 hPa 0,0 l/m 0 min 0 min 0 W/m 6,4 km/h (2 Bft) 97,87 %
21.09.2021 00:40 13,0 C 12,2 C 10,0 C 75 % 1025,8 hPa 0,0 l/m 0 min 0 min 0 W/m 9,7 km/h (2 Bft) 97,87 %
21.09.2021 00:42 13,0 C 12,2 C 10,0 C 75 % 1025,8 hPa 0,0 l/m 0 min 0 min 0 W/m 6,4 km/h (2 Bft) 95,74 %
21.09.2021 00:44 13,0 C 12,2 C 10,0 C 75 % 1025,9 hPa 0,0 l/m 0 min 0 min 0 W/m 9,7 km/h (2 Bft) 97,87 %
21.09.2021 00:46 13,0 C 12,2 C 10,0 C 75 % 1025,8 hPa 0,0 l/m 0 min 0 min 0 W/m 6,4 km/h (2 Bft) 93,48 %
21.09.2021 00:48 12,9 C 12,2 C 10,0 C 75 % 1025,9 hPa 0,0 l/m 0 min 0 min 0 W/m 3,2 km/h (1 Bft) 93,62 %
21.09.2021 00:50 12,9 C 12,2 C 10,0 C 75 % 1025,9 hPa 0,0 l/m 0 min 0 min 0 W/m 6,4 km/h (2 Bft) 95,74 %
21.09.2021 00:52 12,9 C 12,2 C 10,0 C 75 % 1025,9 hPa 0,0 l/m 0 min 0 min 0 W/m 3,2 km/h (1 Bft) 95,74 %
21.09.2021 00:54 12,9 C 12,2 C 10,0 C 75 % 1025,8 hPa 0,0 l/m 0 min 0 min 0 W/m 6,4 km/h (2 Bft) 93,62 %
21.09.2021 00:56 12,9 C 12,2 C 10,0 C 75 % 1025,9 hPa 0,0 l/m 0 min 0 min 0 W/m 3,2 km/h (1 Bft) 95,74 %
21.09.2021 00:58 12,9 C 12,2 C 10,0 C 75 % 1025,9 hPa 0,0 l/m 0 min 0 min 0 W/m 3,2 km/h (1 Bft) 95,65 %
21.09.2021 01:00 12,9 C 12,2 C 10,0 C 75 % 1026,0 hPa 0,0 l/m 0 min 0 min 0 W/m 6,4 km/h (2 Bft) 95,74 %
21.09.2021 01:02 12,9 C 12,2 C 10,0 C 75 % 1026,1 hPa 0,0 l/m 0 min 0 min 0 W/m 6,4 km/h (2 Bft) 91,49 %
21.09.2021 01:04 12,9 C 12,2 C 10,0 C 75 % 1026,0 hPa 0,0 l/m 0 min 0 min 0 W/m 3,2 km/h (1 Bft) 95,74 %
21.09.2021 01:06 12,9 C 12,2 C 10,0 C 75 % 1026,1 hPa 0,0 l/m 0 min 0 min 0 W/m 3,2 km/h (1 Bft) 95,74 %
21.09.2021 01:08 12,9 C 12,2 C 10,0 C 75 % 1026,1 hPa 0,0 l/m 0 min 0 min 0 W/m 6,4 km/h (2 Bft) 95,74 %
21.09.2021 01:10 12,9 C 12,2 C 10,0 C 75 % 1026,2 hPa 0,0 l/m 0 min 0 min 0 W/m 6,4 km/h (2 Bft) 95,65 %
21.09.2021 01:12 12,9 C 12,2 C 10,0 C 75 % 1026,3 hPa 0,0 l/m 0 min 0 min 0 W/m 12,9 km/h (3 Bft) 95,74 %
21.09.2021 01:14 12,9 C 12,2 C 10,6 C 75 % 1026,3 hPa 0,0 l/m 0 min 0 min 0 W/m 6,4 km/h (2 Bft) 95,74 %
21.09.2021 01:16 13,0 C 12,2 C 10,6 C 75 % 1026,3 hPa 0,0 l/m 0 min 0 min 0 W/m 6,4 km/h (2 Bft) 95,74 %
21.09.2021 01:18 13,0 C 12,2 C 10,6 C 75 % 1026,4 hPa 0,0 l/m 0 min 0 min 0 W/m 6,4 km/h (2 Bft) 97,87 %
21.09.2021 01:20 13,0 C 12,2 C 10,6 C 75 % 1026,4 hPa 0,0 l/m 0 min 0 min 0 W/m 6,4 km/h (2 Bft) 95,74 %
21.09.2021 01:22 13,0 C 12,2 C 10,6 C 75 % 1026,4 hPa 0,0 l/m 0 min 0 min 0 W/m 3,2 km/h (1 Bft) 97,83 %
21.09.2021 01:24 13,0 C 12,8 C 10,6 C 75 % 1026,4 hPa 0,0 l/m 0 min 0 min 0 W/m 6,4 km/h (2 Bft) 95,74 %
21.09.2021 01:26 13,0 C 12,8 C 10,6 C 75 % 1026,4 hPa 0,0 l/m 0 min 0 min 0 W/m 6,4 km/h (2 Bft) 93,62 %
21.09.2021 01:28 13,0 C 12,2 C 10,6 C 75 % 1026,4 hPa 0,0 l/m 0 min 0 min 0 W/m 3,2 km/h (1 Bft) 95,74 %
21.09.2021 01:30 13,0 C 12,2 C 10,6 C 75 % 1026,4 hPa 0,0 l/m 0 min 0 min 0 W/m 6,4 km/h (2 Bft) 93,62 %
21.09.2021 01:32 13,0 C 12,2 C 10,6 C 75 % 1026,4 hPa 0,0 l/m 0 min 0 min 0 W/m 12,9 km/h (3 Bft) 95,74 %
21.09.2021 01:34 13,0 C 12,2 C 10,6 C 75 % 1026,4 hPa 0,0 l/m 0 min 0 min 0 W/m 6,4 km/h (2 Bft) 95,65 %
21.09.2021 01:36 13,0 C 12,2 C 10,6 C 75 % 1026,4 hPa 0,0 l/m 0 min 0 min 0 W/m 9,7 km/h (2 Bft) 95,74 %
21.09.2021 01:38 13,0 C 12,2 C 10,6 C 75 % 1026,4 hPa 0,0 l/m 0 min 0 min 0 W/m 9,7 km/h (2 Bft) 95,74 %
21.09.2021 01:40 13,0 C 12,2 C 10,6 C 75 % 1026,4 hPa 0,0 l/m 0 min 0 min 0 W/m 9,7 km/h (2 Bft) 97,87 %
21.09.2021 01:42 13,0 C 12,2 C 10,6 C 75 % 1026,4 hPa 0,0 l/m 0 min 0 min 0 W/m 9,7 km/h (2 Bft) 97,87 %
21.09.2021 01:44 13,0 C 12,2 C 10,0 C 75 % 1026,4 hPa 0,0 l/m 0 min 0 min 0 W/m 6,4 km/h (2 Bft) 97,87 %
21.09.2021 01:46 13,0 C 12,2 C 10,0 C 75 % 1026,3 hPa 0,0 l/m 0 min 0 min 0 W/m 6,4 km/h (2 Bft) 95,65 %
21.09.2021 01:48 13,0 C 12,2 C 10,0 C 76 % 1026,3 hPa 0,0 l/m 0 min 0 min 0 W/m 6,4 km/h (2 Bft) 95,74 %
21.09.2021 01:50 13,0 C 12,2 C 10,0 C 76 % 1026,4 hPa 0,0 l/m 0 min 0 min 0 W/m 3,2 km/h (1 Bft) 97,87 %
21.09.2021 01:52 13,0 C 12,2 C 10,0 C 77 % 1026,3 hPa 0,0 l/m 0 min 0 min 0 W/m 6,4 km/h (2 Bft) 95,74 %
21.09.2021 01:54 13,0 C 12,2 C 10,0 C 77 % 1026,4 hPa 0,0 l/m 0 min 0 min 0 W/m 6,4 km/h (2 Bft) 97,87 %
21.09.2021 01:56 12,9 C 12,2 C 10,0 C 77 % 1026,3 hPa 0,0 l/m 0 min 0 min 0 W/m 3,2 km/h (1 Bft) 100,00 %
21.09.2021 01:58 12,9 C 12,2 C 10,0 C 77 % 1026,3 hPa 0,0 l/m 0 min 0 min 0 W/m 9,7 km/h (2 Bft) 100,00 %
21.09.2021 02:00 12,9 C 12,2 C 10,0 C 77 % 1026,3 hPa 0,0 l/m 0 min 0 min 0 W/m 6,4 km/h (2 Bft) 100,00 %
21.09.2021 02:02 12,9 C 12,2 C 10,0 C 77 % 1026,3 hPa 0,0 l/m 0 min 0 min 0 W/m 6,4 km/h (2 Bft) 100,00 %
21.09.2021 02:04 12,9 C 12,2 C 10,0 C 77 % 1026,3 hPa 0,0 l/m 0 min 0 min 0 W/m 3,2 km/h (1 Bft) 100,00 %
21.09.2021 02:06 12,9 C 12,2 C 10,0 C 77 % 1026,4 hPa 0,0 l/m 0 min 0 min 0 W/m 6,4 km/h (2 Bft) 100,00 %
21.09.2021 02:08 12,8 C 12,2 C 10,0 C 78 % 1026,4 hPa 0,0 l/m 0 min 0 min 0 W/m 9,7 km/h (2 Bft) 100,00 %
21.09.2021 02:10 12,8 C 12,2 C 10,0 C 78 % 1026,5 hPa 0,0 l/m 0 min 0 min 0 W/m 9,7 km/h (2 Bft) 100,00 %
21.09.2021 02:12 12,8 C 12,2 C 10,0 C 77 % 1026,5 hPa 0,0 l/m 0 min 0 min 0 W/m 3,2 km/h (1 Bft) 100,00 %
21.09.2021 02:14 12,8 C 12,2 C 10,0 C 77 % 1026,5 hPa 0,0 l/m 0 min 0 min 0 W/m 12,9 km/h (3 Bft) 97,87 %
21.09.2021 02:16 12,7 C 12,2 C 10,0 C 77 % 1026,7 hPa 0,0 l/m 0 min 0 min 0 W/m 6,4 km/h (2 Bft) 97,87 %
21.09.2021 02:18 12,7 C 12,2 C 10,0 C 77 % 1026,7 hPa 0,0 l/m 0 min 0 min 0 W/m 6,4 km/h (2 Bft) 100,00 %
21.09.2021 02:20 12,7 C 12,2 C 10,0 C 77 % 1026,7 hPa 0,0 l/m 0 min 0 min 0 W/m 6,4 km/h (2 Bft) 100,00 %
21.09.2021 02:22 12,7 C 12,2 C 10,0 C 77 % 1026,7 hPa 0,0 l/m 0 min 0 min 0 W/m 6,4 km/h (2 Bft) 97,87 %
21.09.2021 02:24 12,7 C 12,2 C 10,0 C 77 % 1026,7 hPa 0,0 l/m 0 min 0 min 0 W/m 9,7 km/h (2 Bft) 100,00 %
21.09.2021 02:26 12,7 C 12,2 C 10,0 C 77 % 1026,7 hPa 0,0 l/m 0 min 0 min 0 W/m 9,7 km/h (2 Bft) 97,87 %
21.09.2021 02:28 12,7 C 12,2 C 10,0 C 77 % 1026,8 hPa 0,0 l/m 0 min 0 min 0 W/m 6,4 km/h (2 Bft) 100,00 %
21.09.2021 02:30 12,7 C 12,2 C 10,0 C 77 % 1026,8 hPa 0,0 l/m 0 min 0 min 0 W/m 6,4 km/h (2 Bft) 97,87 %
21.09.2021 02:32 12,7 C 12,2 C 10,0 C 77 % 1026,7 hPa 0,0 l/m 0 min 0 min 0 W/m 6,4 km/h (2 Bft) 100,00 %
21.09.2021 02:34 12,7 C 12,2 C 10,0 C 77 % 1026,8 hPa 0,0 l/m 0 min 0 min 0 W/m 6,4 km/h (2 Bft) 100,00 %
21.09.2021 02:36 12,7 C 12,2 C 10,0 C 78 % 1026,8 hPa 0,0 l/m 0 min 0 min 0 W/m 9,7 km/h (2 Bft) 100,00 %
21.09.2021 02:38 12,7 C 12,2 C 10,0 C 78 % 1026,8 hPa 0,0 l/m 0 min 0 min 0 W/m 6,4 km/h (2 Bft) 97,87 %
21.09.2021 02:40 12,7 C 12,2 C 10,0 C 78 % 1026,9 hPa 0,0 l/m 0 min 0 min 0 W/m 3,2 km/h (1 Bft) 100,00 %
21.09.2021 02:42 12,7 C 12,2 C 10,0 C 78 % 1026,9 hPa 0,0 l/m 0 min 0 min 0 W/m 3,2 km/h (1 Bft) 100,00 %
21.09.2021 02:44 12,7 C 12,2 C 10,0 C 78 % 1026,9 hPa 0,0 l/m 0 min 0 min 0 W/m 3,2 km/h (1 Bft) 100,00 %
21.09.2021 02:46 12,7 C 12,2 C 10,0 C 78 % 1026,9 hPa 0,0 l/m 0 min 0 min 0 W/m 3,2 km/h (1 Bft) 95,74 %
21.09.2021 02:48 12,7 C 12,2 C 10,0 C 78 % 1026,8 hPa 0,0 l/m 0 min 0 min 0 W/m 3,2 km/h (1 Bft) 100,00 %
21.09.2021 02:50 12,6 C 12,2 C 10,0 C 78 % 1026,8 hPa 0,0 l/m 0 min 0 min 0 W/m 6,4 km/h (2 Bft) 100,00 %
21.09.2021 02:52 12,6 C 12,2 C 10,0 C 78 % 1026,7 hPa 0,0 l/m 0 min 0 min 0 W/m 6,4 km/h (2 Bft) 100,00 %
21.09.2021 02:54 12,6 C 12,2 C 10,0 C 79 % 1026,7 hPa 0,0 l/m 0 min 0 min 0 W/m 6,4 km/h (2 Bft) 100,00 %
21.09.2021 02:56 12,6 C 12,2 C 10,0 C 79 % 1026,8 hPa 0,0 l/m 0 min 0 min 0 W/m 3,2 km/h (1 Bft) 97,87 %
21.09.2021 02:58 12,6 C 12,2 C 10,0 C 79 % 1026,8 hPa 0,0 l/m 0 min 0 min 0 W/m 6,4 km/h (2 Bft) 100,00 %
21.09.2021 03:00 12,6 C 11,7 C 10,0 C 79 % 1026,8 hPa 0,0 l/m 0 min 0 min 0 W/m 6,4 km/h (2 Bft) 100,00 %
21.09.2021 03:02 12,6 C 12,2 C 10,0 C 79 % 1026,9 hPa 0,0 l/m 0 min 0 min 0 W/m 3,2 km/h (1 Bft) 100,00 %
21.09.2021 03:04 12,5 C 11,7 C 10,0 C 79 % 1026,8 hPa 0,0 l/m 0 min 0 min 0 W/m 3,2 km/h (1 Bft) 97,87 %
21.09.2021 03:06 12,5 C 11,7 C 10,0 C 79 % 1026,8 hPa 0,0 l/m 0 min 0 min 0 W/m 3,2 km/h (1 Bft) 97,87 %
21.09.2021 03:08 12,5 C 11,7 C 10,0 C 79 % 1026,8 hPa 0,0 l/m 0 min 0 min 0 W/m 3,2 km/h (1 Bft) 97,87 %
21.09.2021 03:10 12,5 C 11,7 C 10,0 C 80 % 1026,9 hPa 0,0 l/m 0 min 0 min 0 W/m 3,2 km/h (1 Bft) 97,87 %
21.09.2021 03:12 12,5 C 11,7 C 10,0 C 80 % 1026,8 hPa 0,0 l/m 0 min 0 min 0 W/m 3,2 km/h (1 Bft) 97,83 %
21.09.2021 03:14 12,5 C 11,7 C 10,0 C 80 % 1026,9 hPa 0,0 l/m 0 min 0 min 0 W/m 3,2 km/h (1 Bft) 95,74 %
21.09.2021 03:16 12,5 C 11,7 C 10,0 C 80 % 1026,8 hPa 0,0 l/m 0 min 0 min 0 W/m 3,2 km/h (1 Bft) 95,74 %
21.09.2021 03:18 12,4 C 11,7 C 10,0 C 80 % 1026,9 hPa 0,0 l/m 0 min 0 min 0 W/m 6,4 km/h (2 Bft) 93,62 %
21.09.2021 03:20 12,4 C 11,7 C 10,0 C 80 % 1026,9 hPa 0,0 l/m 0 min 0 min 0 W/m 3,2 km/h (1 Bft) 95,74 %
21.09.2021 03:22 12,4 C 11,7 C 10,0 C 80 % 1026,9 hPa 0,0 l/m 0 min 0 min 0 W/m 3,2 km/h (1 Bft) 93,62 %
21.09.2021 03:24 12,4 C 11,7 C 10,0 C 80 % 1026,9 hPa 0,0 l/m 0 min 0 min 0 W/m 3,2 km/h (1 Bft) 95,65 %
21.09.2021 03:26 12,4 C 11,7 C 10,0 C 80 % 1026,8 hPa 0,0 l/m 0 min 0 min 0 W/m 3,2 km/h (1 Bft) 93,62 %
21.09.2021 03:28 12,4 C 11,7 C 9,5 C 80 % 1026,9 hPa 0,0 l/m 0 min 0 min 0 W/m 3,2 km/h (1 Bft) 95,74 %
21.09.2021 03:30 12,4 C 11,7 C 9,5 C 80 % 1026,9 hPa 0,0 l/m 0 min 0 min 0 W/m 3,2 km/h (1 Bft) 95,74 %
21.09.2021 03:32 12,4 C 11,7 C 9,5 C 81 % 1026,9 hPa 0,0 l/m 0 min 0 min 0 W/m 3,2 km/h (1 Bft) 97,87 %
21.09.2021 03:34 12,4 C 11,7 C 9,5 C 81 % 1027,0 hPa 0,0 l/m 0 min 0 min 0 W/m 3,2 km/h (1 Bft) 95,74 %
21.09.2021 03:36 12,4 C 11,7 C 9,5 C 81 % 1026,9 hPa 0,0 l/m 0 min 0 min 0 W/m 3,2 km/h (1 Bft) 95,65 %
21.09.2021 03:38 12,3 C 11,7 C 9,5 C 81 % 1026,8 hPa 0,0 l/m 0 min 0 min 0 W/m 3,2 km/h (1 Bft) 95,74 %
21.09.2021 03:40 12,3 C 11,7 C 9,5 C 81 % 1026,9 hPa 0,0 l/m 0 min 0 min 0 W/m 3,2 km/h (1 Bft) 95,74 %
21.09.2021 03:42 12,3 C 11,7 C 9,5 C 81 % 1026,9 hPa 0,0 l/m 0 min 0 min 0 W/m 3,2 km/h (1 Bft) 95,74 %
21.09.2021 03:44 12,3 C 11,7 C 9,5 C 81 % 1027,0 hPa 0,0 l/m 0 min 0 min 0 W/m 6,4 km/h (2 Bft) 95,74 %
21.09.2021 03:46 12,3 C 11,7 C 9,5 C 81 % 1026,9 hPa 0,0 l/m 0 min 0 min 0 W/m 3,2 km/h (1 Bft) 95,65 %
21.09.2021 03:48 12,3 C 11,7 C 9,5 C 82 % 1026,9 hPa 0,0 l/m 0 min 0 min 0 W/m 3,2 km/h (1 Bft) 91,49 %
21.09.2021 03:50 12,3 C 11,7 C 9,5 C 82 % 1026,9 hPa 0,0 l/m 0 min 0 min 0 W/m 3,2 km/h (1 Bft) 97,87 %
21.09.2021 03:52 12,3 C 11,7 C 9,5 C 82 % 1026,9 hPa 0,0 l/m 0 min 0 min 0 W/m 3,2 km/h (1 Bft) 97,87 %
21.09.2021 03:54 12,3 C 11,7 C 9,5 C 82 % 1026,9 hPa 0,0 l/m 0 min 0 min 0 W/m 3,2 km/h (1 Bft) 97,87 %
21.09.2021 03:56 12,3 C 11,7 C 9,5 C 82 % 1027,0 hPa 0,0 l/m 0 min 0 min 0 W/m 3,2 km/h (1 Bft) 97,87 %
21.09.2021 03:58 12,3 C 11,7 C 9,5 C 82 % 1027,0 hPa 0,0 l/m 0 min 0 min 0 W/m 3,2 km/h (1 Bft) 97,83 %
21.09.2021 04:00 12,2 C 11,7 C 9,5 C 82 % 1027,0 hPa 0,0 l/m 0 min 0 min 0 W/m 3,2 km/h (1 Bft) 95,74 %
21.09.2021 04:02 12,2 C 11,7 C 9,5 C 82 % 1027,0 hPa 0,0 l/m 0 min 0 min 0 W/m 0,0 km/h (0 Bft) 92,31 %
21.09.2021 04:04 12,2 C 11,7 C 9,5 C 82 % 1027,0 hPa 0,0 l/m 0 min 0 min 0 W/m 3,2 km/h (1 Bft) 93,62 %
21.09.2021 04:06 12,1 C 11,7 C 9,5 C 82 % 1027,0 hPa 0,0 l/m 0 min 0 min 0 W/m 3,2 km/h (1 Bft) 97,87 %
21.09.2021 04:08 12,1 C 11,7 C 9,5 C 82 % 1027,0 hPa 0,0 l/m 0 min 0 min 0 W/m 3,2 km/h (1 Bft) 97,87 %
21.09.2021 04:10 12,1 C 11,7 C 9,5 C 82 % 1027,0 hPa 0,0 l/m 0 min 0 min 0 W/m 6,4 km/h (2 Bft) 97,83 %
21.09.2021 04:12 12,1 C 11,7 C 9,5 C 82 % 1027,0 hPa 0,0 l/m 0 min 0 min 0 W/m 6,4 km/h (2 Bft) 97,87 %
21.09.2021 04:14 12,1 C 11,7 C 9,5 C 82 % 1027,0 hPa 0,0 l/m 0 min 0 min 0 W/m 3,2 km/h (1 Bft) 97,87 %
21.09.2021 04:16 12,1 C 11,7 C 9,5 C 82 % 1027,0 hPa 0,0 l/m 0 min 0 min 0 W/m 3,2 km/h (1 Bft) 97,87 %
21.09.2021 04:18 12,1 C 11,7 C 9,5 C 82 % 1027,1 hPa 0,0 l/m 0 min 0 min 0 W/m 3,2 km/h (1 Bft) 95,74 %
21.09.2021 04:20 12,1 C 11,7 C 9,5 C 82 % 1027,1 hPa 0,0 l/m 0 min 0 min 0 W/m 3,2 km/h (1 Bft) 97,87 %
21.09.2021 04:22 12,1 C 11,7 C 9,5 C 82 % 1027,1 hPa 0,0 l/m 0 min 0 min 0 W/m 3,2 km/h (1 Bft) 97,83 %
21.09.2021 04:24 12,1 C 11,7 C 9,5 C 82 % 1027,1 hPa 0,0 l/m 0 min 0 min 0 W/m 3,2 km/h (1 Bft) 97,87 %
21.09.2021 04:26 12,1 C 11,7 C 9,5 C 82 % 1027,1 hPa 0,0 l/m 0 min 0 min 0 W/m 3,2 km/h (1 Bft) 97,87 %
21.09.2021 04:28 12,1 C 11,7 C 9,5 C 82 % 1027,1 hPa 0,0 l/m 0 min 0 min 0 W/m 3,2 km/h (1 Bft) 97,87 %
21.09.2021 04:30 12,1 C 11,7 C 9,5 C 83 % 1027,0 hPa 0,0 l/m 0 min 0 min 0 W/m 6,4 km/h (2 Bft) 97,87 %
21.09.2021 04:32 12,1 C 11,7 C 9,5 C 83 % 1027,0 hPa 0,0 l/m 0 min 0 min 0 W/m 3,2 km/h (1 Bft) 97,87 %
21.09.2021 04:34 12,0 C 11,7 C 9,5 C 83 % 1027,0 hPa 0,0 l/m 0 min 0 min 0 W/m 3,2 km/h (1 Bft) 97,83 %
21.09.2021 04:36 12,0 C 11,7 C 9,5 C 83 % 1027,0 hPa 0,0 l/m 0 min 0 min 0 W/m 3,2 km/h (1 Bft) 91,49 %
21.09.2021 04:38 12,0 C 11,7 C 9,5 C 83 % 1026,9 hPa 0,0 l/m 0 min 0 min 0 W/m 3,2 km/h (1 Bft) 95,74 %
21.09.2021 04:40 12,0 C 11,7 C 9,5 C 83 % 1026,9 hPa 0,0 l/m 0 min 0 min 0 W/m 3,2 km/h (1 Bft) 100,00 %
21.09.2021 04:42 12,0 C 11,7 C 9,5 C 83 % 1026,9 hPa 0,0 l/m 0 min 0 min 0 W/m 3,2 km/h (1 Bft) 100,00 %
21.09.2021 04:44 12,0 C 11,1 C 9,5 C 83 % 1027,0 hPa 0,0 l/m 0 min 0 min 0 W/m 3,2 km/h (1 Bft) 97,87 %
21.09.2021 04:46 12,0 C 11,7 C 9,5 C 83 % 1027,0 hPa 0,0 l/m 0 min 0 min 0 W/m 3,2 km/h (1 Bft) 100,00 %
21.09.2021 04:48 12,0 C 11,1 C 9,5 C 83 % 1027,0 hPa 0,0 l/m 0 min 0 min 0 W/m 3,2 km/h (1 Bft) 95,74 %
21.09.2021 04:50 12,0 C 11,1 C 9,5 C 83 % 1027,1 hPa 0,0 l/m 0 min 0 min 0 W/m 3,2 km/h (1 Bft) 100,00 %
21.09.2021 04:52 12,0 C 11,1 C 9,5 C 83 % 1027,1 hPa 0,0 l/m 0 min 0 min 0 W/m 3,2 km/h (1 Bft) 100,00 %
21.09.2021 04:54 11,9 C 11,1 C 9,5 C 83 % 1027,1 hPa 0,0 l/m 0 min 0 min 0 W/m 3,2 km/h (1 Bft) 100,00 %
21.09.2021 04:56 11,9 C 11,1 C 9,5 C 83 % 1027,1 hPa 0,0 l/m 0 min 0 min 0 W/m 3,2 km/h (1 Bft) 95,74 %
21.09.2021 04:58 11,9 C 11,1 C 9,5 C 83 % 1027,1 hPa 0,0 l/m 0 min 0 min 0 W/m 3,2 km/h (1 Bft) 100,00 %
21.09.2021 05:00 11,9 C 11,1 C 9,5 C 83 % 1027,1 hPa 0,0 l/m 0 min 0 min 0 W/m 6,4 km/h (2 Bft) 100,00 %
21.09.2021 05:02 11,9 C 11,1 C 9,5 C 84 % 1027,0 hPa 0,0 l/m 0 min 0 min 0 W/m 3,2 km/h (1 Bft) 95,74 %
21.09.2021 05:04 11,9 C 11,1 C 9,5 C 84 % 1027,0 hPa 0,0 l/m 0 min 0 min 0 W/m 3,2 km/h (1 Bft) 100,00 %
21.09.2021 05:06 11,9 C 11,1 C 9,5 C 84 % 1027,0 hPa 0,0 l/m 0 min 0 min 0 W/m 3,2 km/h (1 Bft) 97,87 %
21.09.2021 05:08 11,9 C 11,1 C 9,5 C 84 % 1026,9 hPa 0,0 l/m 0 min 0 min 0 W/m 6,4 km/h (2 Bft) 97,87 %
21.09.2021 05:10 11,8 C 11,1 C 9,5 C 84 % 1026,9 hPa 0,0 l/m 0 min 0 min 0 W/m 3,2 km/h (1 Bft) 97,83 %
21.09.2021 05:12 11,8 C 11,1 C 9,5 C 84 % 1026,9 hPa 0,0 l/m 0 min 0 min 0 W/m 3,2 km/h (1 Bft) 95,74 %
21.09.2021 05:14 11,8 C 11,1 C 9,5 C 84 % 1026,9 hPa 0,0 l/m 0 min 0 min 0 W/m 3,2 km/h (1 Bft) 95,74 %
21.09.2021 05:16 11,8 C 11,1 C 9,5 C 84 % 1026,9 hPa 0,0 l/m 0 min 0 min 0 W/m 3,2 km/h (1 Bft) 97,87 %
21.09.2021 05:18 11,8 C 11,1 C 9,5 C 84 % 1027,0 hPa 0,0 l/m 0 min 0 min 0 W/m 3,2 km/h (1 Bft) 97,87 %
21.09.2021 05:20 11,7 C 11,1 C 8,9 C 84 % 1027,1 hPa 0,0 l/m 0 min 0 min 0 W/m 0,0 km/h (0 Bft) 97,87 %
21.09.2021 05:22 11,7 C 11,1 C 8,9 C 84 % 1027,1 hPa 0,0 l/m 0 min 0 min 0 W/m 3,2 km/h (1 Bft) 97,83 %
21.09.2021 05:24 11,7 C 11,1 C 8,9 C 84 % 1027,2 hPa 0,0 l/m 0 min 0 min 0 W/m 0,0 km/h (0 Bft) 93,62 %
21.09.2021 05:26 11,7 C 10,6 C 8,9 C 84 % 1027,2 hPa 0,0 l/m 0 min 0 min 0 W/m 0,0 km/h (0 Bft) 97,87 %
21.09.2021 05:28 11,7 C 10,6 C 8,9 C 84 % 1027,2 hPa 0,0 l/m 0 min 0 min 0 W/m 0,0 km/h (0 Bft) 95,74 %
21.09.2021 05:30 11,7 C 10,6 C 8,9 C 84 % 1027,3 hPa 0,0 l/m 0 min 0 min 0 W/m 0,0 km/h (0 Bft) 95,74 %
21.09.2021 05:32 11,6 C 10,6 C 8,9 C 84 % 1027,3 hPa 0,0 l/m 0 min 0 min 0 W/m 3,2 km/h (1 Bft) 91,49 %
21.09.2021 05:34 11,6 C 11,1 C 8,9 C 84 % 1027,3 hPa 0,0 l/m 0 min 0 min 0 W/m 0,0 km/h (0 Bft) 95,65 %
21.09.2021 05:36 11,6 C 11,1 C 8,9 C 84 % 1027,3 hPa 0,0 l/m 0 min 0 min 0 W/m 3,2 km/h (1 Bft) 95,74 %
21.09.2021 05:38 11,6 C 11,1 C 8,9 C 84 % 1027,3 hPa 0,0 l/m 0 min 0 min 0 W/m 0,0 km/h (0 Bft) 97,87 %
21.09.2021 05:40 11,6 C 11,1 C 8,9 C 84 % 1027,4 hPa 0,0 l/m 0 min 0 min 0 W/m 0,0 km/h (0 Bft) 97,87 %
21.09.2021 05:42 11,6 C 11,1 C 8,9 C 84 % 1027,4 hPa 0,0 l/m 0 min 0 min 0 W/m 3,2 km/h (1 Bft) 97,87 %
21.09.2021 05:44 11,6 C 11,1 C 9,5 C 84 % 1027,4 hPa 0,0 l/m 0 min 0 min 0 W/m 0,0 km/h (0 Bft) 97,87 %
21.09.2021 05:46 11,6 C 11,1 C 9,5 C 84 % 1027,5 hPa 0,0 l/m 0 min 0 min 0 W/m 3,2 km/h (1 Bft) 97,83 %
21.09.2021 05:48 11,6 C 11,1 C 9,5 C 84 % 1027,4 hPa 0,0 l/m 0 min 0 min 0 W/m 3,2 km/h (1 Bft) 95,74 %
21.09.2021 05:50 11,6 C 11,1 C 9,5 C 84 % 1027,5 hPa 0,0 l/m 0 min 0 min 0 W/m 0,0 km/h (0 Bft) 95,74 %
21.09.2021 05:52 11,5 C 11,1 C 9,5 C 84 % 1027,5 hPa 0,0 l/m 0 min 0 min 0 W/m 0,0 km/h (0 Bft) 95,74 %
21.09.2021 05:54 11,5 C 11,1 C 9,5 C 84 % 1027,6 hPa 0,0 l/m 0 min 0 min 0 W/m 0,0 km/h (0 Bft) 97,87 %
21.09.2021 05:56 11,5 C 11,1 C 9,5 C 84 % 1027,6 hPa 0,0 l/m 0 min 0 min 0 W/m 3,2 km/h (1 Bft) 97,83 %
21.09.2021 05:58 11,5 C 11,1 C 9,5 C 84 % 1027,7 hPa 0,0 l/m 0 min 0 min 0 W/m 3,2 km/h (1 Bft) 95,74 %
21.09.2021 06:00 11,5 C 11,1 C 9,5 C 84 % 1027,7 hPa 0,0 l/m 0 min 0 min 0 W/m 3,2 km/h (1 Bft) 97,87 %
21.09.2021 06:02 11,5 C 11,1 C 9,5 C 84 % 1027,7 hPa 0,0 l/m 0 min 0 min 0 W/m 3,2 km/h (1 Bft) 97,87 %
21.09.2021 06:04 11,5 C 11,1 C 9,5 C 84 % 1027,7 hPa 0,0 l/m 0 min 0 min 0 W/m 6,4 km/h (2 Bft) 95,74 %
21.09.2021 06:08 11,5 C 11,1 C 9,5 C 84 % 1027,8 hPa 0,0 l/m 0 min 0 min 0 W/m 3,2 km/h (1 Bft) 99,04 %
21.09.2021 06:10 11,5 C 11,1 C 9,5 C 83 % 1027,8 hPa 0,0 l/m 0 min 0 min 0 W/m 3,2 km/h (1 Bft) 97,83 %
21.09.2021 06:12 11,5 C 11,1 C 9,5 C 83 % 1027,9 hPa 0,0 l/m 0 min 0 min 0 W/m 6,4 km/h (2 Bft) 100,00 %
21.09.2021 06:14 11,5 C 11,1 C 9,5 C 83 % 1027,8 hPa 0,0 l/m 0 min 0 min 0 W/m 3,2 km/h (1 Bft) 100,00 %
21.09.2021 06:16 11,6 C 11,1 C 9,5 C 83 % 1027,8 hPa 0,0 l/m 0 min 0 min 0 W/m 0,0 km/h (0 Bft) 100,00 %
21.09.2021 06:18 11,5 C 11,1 C 9,5 C 83 % 1027,9 hPa 0,0 l/m 0 min 0 min 0 W/m 3,2 km/h (1 Bft) 100,00 %
21.09.2021 06:20 11,5 C 11,1 C 9,5 C 84 % 1027,9 hPa 0,0 l/m 0 min 0 min 0 W/m 3,2 km/h (1 Bft) 100,00 %
21.09.2021 06:22 11,5 C 11,1 C 9,5 C 84 % 1027,9 hPa 0,0 l/m 0 min 0 min 0 W/m 3,2 km/h (1 Bft) 100,00 %
21.09.2021 06:24 11,5 C 11,1 C 9,5 C 84 % 1028,0 hPa 0,0 l/m 0 min 0 min 0 W/m 3,2 km/h (1 Bft) 100,00 %
21.09.2021 06:26 11,5 C 11,1 C 9,5 C 84 % 1028,0 hPa 0,0 l/m 0 min 0 min 0 W/m 0,0 km/h (0 Bft) 100,00 %
21.09.2021 06:28 11,5 C 11,1 C 9,5 C 84 % 1028,0 hPa 0,0 l/m 0 min 0 min 0 W/m 0,0 km/h (0 Bft) 100,00 %
21.09.2021 06:30 11,5 C 10,6 C 9,5 C 84 % 1028,0 hPa 0,0 l/m 0 min 0 min 0 W/m 0,0 km/h (0 Bft) 100,00 %
21.09.2021 06:32 11,5 C 10,6 C 8,9 C 84 % 1028,0 hPa 0,0 l/m 0 min 0 min 0 W/m 0,0 km/h (0 Bft) 100,00 %
21.09.2021 06:34 11,5 C 10,6 C 8,9 C 84 % 1028,1 hPa 0,0 l/m 0 min 0 min 0 W/m 0,0 km/h (0 Bft) 100,00 %
21.09.2021 06:36 11,5 C 10,6 C 8,9 C 84 % 1028,1 hPa 0,0 l/m 0 min 0 min 0 W/m 0,0 km/h (0 Bft) 100,00 %
21.09.2021 06:38 11,5 C 10,6 C 8,9 C 84 % 1028,1 hPa 0,0 l/m 0 min 0 min 0 W/m 0,0 km/h (0 Bft) 100,00 %
21.09.2021 06:40 11,5 C 10,6 C 8,9 C 84 % 1028,2 hPa 0,0 l/m 0 min 0 min 0 W/m 3,2 km/h (1 Bft) 97,87 %
21.09.2021 06:42 11,5 C 10,6 C 8,9 C 84 % 1028,2 hPa 0,0 l/m 0 min 0 min 0 W/m 0,0 km/h (0 Bft) 100,00 %
21.09.2021 06:44 11,5 C 10,6 C 8,9 C 84 % 1028,2 hPa 0,0 l/m 0 min 0 min 0 W/m 0,0 km/h (0 Bft) 100,00 %
21.09.2021 06:46 11,5 C 10,6 C 8,9 C 84 % 1028,2 hPa 0,0 l/m 0 min 0 min 0 W/m 3,2 km/h (1 Bft) 97,83 %
21.09.2021 06:48 11,5 C 10,6 C 8,9 C 84 % 1028,3 hPa 0,0 l/m 0 min 0 min 0 W/m 0,0 km/h (0 Bft) 100,00 %
21.09.2021 06:50 11,5 C 10,6 C 8,9 C 84 % 1028,3 hPa 0,0 l/m 0 min 0 min 0 W/m 3,2 km/h (1 Bft) 97,87 %
21.09.2021 06:52 11,5 C 10,6 C 8,9 C 85 % 1028,3 hPa 0,0 l/m 0 min 0 min 0 W/m 0,0 km/h (0 Bft) 97,87 %
21.09.2021 06:54 11,5 C 10,6 C 8,9 C 84 % 1028,3 hPa 0,0 l/m 0 min 0 min 0 W/m 0,0 km/h (0 Bft) 97,87 %
21.09.2021 06:56 11,5 C 10,6 C 8,9 C 84 % 1028,3 hPa 0,0 l/m 0 min 0 min 0 W/m 0,0 km/h (0 Bft) 95,74 %
21.09.2021 06:58 11,4 C 10,6 C 8,9 C 84 % 1028,3 hPa 0,0 l/m 0 min 0 min 0 W/m 0,0 km/h (0 Bft) 97,83 %
21.09.2021 07:00 11,4 C 10,6 C 8,9 C 85 % 1028,4 hPa 0,0 l/m 0 min 0 min 0 W/m 6,4 km/h (2 Bft) 97,87 %
21.09.2021 07:02 11,4 C 10,6 C 8,9 C 85 % 1028,4 hPa 0,0 l/m 0 min 0 min 0 W/m 0,0 km/h (0 Bft) 93,62 %
21.09.2021 07:04 11,4 C 10,6 C 8,9 C 85 % 1028,4 hPa 0,0 l/m 0 min 0 min 0 W/m 3,2 km/h (1 Bft) 95,74 %
21.09.2021 07:06 11,3 C 10,6 C 8,9 C 85 % 1028,4 hPa 0,0 l/m 0 min 0 min 0 W/m 6,4 km/h (2 Bft) 95,74 %
21.09.2021 07:08 11,3 C 10,6 C 8,9 C 85 % 1028,5 hPa 0,0 l/m 0 min 0 min 0 W/m 3,2 km/h (1 Bft) 93,62 %
21.09.2021 07:10 11,3 C 10,6 C 8,9 C 85 % 1028,5 hPa 0,0 l/m 0 min 0 min 0 W/m 0,0 km/h (0 Bft) 93,48 %
21.09.2021 07:12 11,3 C 10,0 C 8,9 C 85 % 1028,5 hPa 0,0 l/m 0 min 0 min 0 W/m 3,2 km/h (1 Bft) 95,74 %
21.09.2021 07:14 11,3 C 10,0 C 8,9 C 85 % 1028,6 hPa 0,0 l/m 0 min 0 min 0 W/m 0,0 km/h (0 Bft) 95,74 %
21.09.2021 07:16 11,3 C 10,0 C 8,9 C 85 % 1028,5 hPa 0,0 l/m 0 min 0 min 0 W/m 3,2 km/h (1 Bft) 95,74 %
21.09.2021 07:18 11,2 C 10,0 C 8,9 C 85 % 1028,5 hPa 0,0 l/m 0 min 0 min 0 W/m 0,0 km/h (0 Bft) 95,74 %
21.09.2021 07:20 11,2 C 10,0 C 8,9 C 85 % 1028,5 hPa 0,0 l/m 0 min 0 min 0 W/m 0,0 km/h (0 Bft) 97,87 %
21.09.2021 07:22 11,1 C 10,0 C 8,9 C 85 % 1028,6 hPa 0,0 l/m 0 min 0 min 0 W/m 0,0 km/h (0 Bft) 97,83 %
21.09.2021 07:24 11,1 C 10,0 C 8,4 C 85 % 1028,6 hPa 0,0 l/m 0 min 0 min 5 W/m 0,0 km/h (0 Bft) 95,74 %
21.09.2021 07:26 11,1 C 10,0 C 8,4 C 85 % 1028,6 hPa 0,0 l/m 0 min 0 min 5 W/m 3,2 km/h (1 Bft) 97,87 %
21.09.2021 07:28 11,1 C 10,0 C 8,4 C 85 % 1028,6 hPa 0,0 l/m 0 min 0 min 5 W/m 0,0 km/h (0 Bft) 97,87 %
21.09.2021 07:30 11,0 C 10,0 C 8,4 C 85 % 1028,6 hPa 0,0 l/m 0 min 0 min 5 W/m 0,0 km/h (0 Bft) 97,87 %
21.09.2021 07:32 11,0 C 10,0 C 8,4 C 85 % 1028,7 hPa 0,0 l/m 0 min 0 min 7 W/m 0,0 km/h (0 Bft) 95,74 %
21.09.2021 07:34 11,0 C 9,4 C 8,4 C 86 % 1028,6 hPa 0,0 l/m 0 min 0 min 7 W/m 0,0 km/h (0 Bft) 97,83 %
21.09.2021 07:36 11,0 C 9,4 C 8,4 C 86 % 1028,6 hPa 0,0 l/m 0 min 0 min 9 W/m 0,0 km/h (0 Bft) 97,87 %
21.09.2021 07:38 11,0 C 9,4 C 8,4 C 86 % 1028,6 hPa 0,0 l/m 0 min 0 min 10 W/m 0,0 km/h (0 Bft) 97,87 %
21.09.2021 07:40 10,9 C 9,4 C 8,4 C 86 % 1028,7 hPa 0,0 l/m 0 min 0 min 12 W/m 0,0 km/h (0 Bft) 95,74 %
21.09.2021 07:42 10,9 C 9,4 C 8,4 C 86 % 1028,7 hPa 0,0 l/m 0 min 0 min 13 W/m 0,0 km/h (0 Bft) 95,74 %
21.09.2021 07:44 10,9 C 9,4 C 8,4 C 86 % 1028,6 hPa 0,0 l/m 0 min 0 min 16 W/m 0,0 km/h (0 Bft) 95,65 %
21.09.2021 07:46 10,8 C 9,4 C 8,4 C 86 % 1028,5 hPa 0,0 l/m 0 min 0 min 17 W/m 0,0 km/h (0 Bft) 95,74 %
21.09.2021 07:48 10,8 C 9,4 C 8,4 C 86 % 1028,5 hPa 0,0 l/m 0 min 0 min 18 W/m 0,0 km/h (0 Bft) 95,74 %
21.09.2021 07:50 10,8 C 9,4 C 8,4 C 86 % 1028,6 hPa 0,0 l/m 0 min 0 min 19 W/m 0,0 km/h (0 Bft) 95,74 %
21.09.2021 07:52 10,8 C 9,4 C 8,4 C 87 % 1028,7 hPa 0,0 l/m 0 min 0 min 20 W/m 0,0 km/h (0 Bft) 95,74 %
21.09.2021 07:54 10,7 C 9,4 C 8,4 C 87 % 1028,9 hPa 0,0 l/m 0 min 0 min 22 W/m 0,0 km/h (0 Bft) 95,74 %
21.09.2021 07:56 10,7 C 9,4 C 8,4 C 87 % 1028,9 hPa 0,0 l/m 0 min 0 min 24 W/m 0,0 km/h (0 Bft) 97,83 %
21.09.2021 07:58 10,6 C 9,4 C 8,4 C 87 % 1028,8 hPa 0,0 l/m 0 min 0 min 26 W/m 0,0 km/h (0 Bft) 95,74 %
21.09.2021 08:00 10,6 C 9,4 C 8,4 C 87 % 1028,9 hPa 0,0 l/m 0 min 0 min 27 W/m 0,0 km/h (0 Bft) 93,62 %
21.09.2021 08:02 10,6 C 9,4 C 8,4 C 87 % 1028,9 hPa 0,0 l/m 0 min 0 min 29 W/m 0,0 km/h (0 Bft) 97,87 %
21.09.2021 08:04 10,5 C 9,4 C 8,4 C 87 % 1029,0 hPa 0,0 l/m 0 min 0 min 31 W/m 0,0 km/h (0 Bft) 97,87 %
21.09.2021 08:06 10,5 C 9,4 C 8,4 C 87 % 1029,0 hPa 0,0 l/m 0 min 0 min 34 W/m 0,0 km/h (0 Bft) 97,87 %
21.09.2021 08:08 10,5 C 9,4 C 8,4 C 87 % 1029,2 hPa 0,0 l/m 0 min 0 min 36 W/m 3,2 km/h (1 Bft) 97,83 %
21.09.2021 08:10 10,5 C 9,4 C 8,4 C 87 % 1029,2 hPa 0,0 l/m 0 min 0 min 39 W/m 3,2 km/h (1 Bft) 97,87 %
21.09.2021 08:12 10,5 C 10,0 C 8,4 C 88 % 1029,1 hPa 0,0 l/m 0 min 0 min 41 W/m 0,0 km/h (0 Bft) 95,74 %
21.09.2021 08:14 10,5 C 10,0 C 8,4 C 88 % 1029,1 hPa 0,0 l/m 0 min 0 min 43 W/m 0,0 km/h (0 Bft) 95,74 %
21.09.2021 08:16 10,5 C 10,0 C 8,4 C 88 % 1029,1 hPa 0,0 l/m 0 min 0 min 47 W/m 0,0 km/h (0 Bft) 95,74 %
21.09.2021 08:18 10,5 C 10,0 C 8,4 C 88 % 1029,1 hPa 0,0 l/m 0 min 0 min 47 W/m 0,0 km/h (0 Bft) 97,87 %
21.09.2021 08:20 10,5 C 10,0 C 8,4 C 88 % 1029,1 hPa 0,0 l/m 0 min 0 min 49 W/m 0,0 km/h (0 Bft) 97,83 %
21.09.2021 08:22 10,5 C 10,0 C 8,9 C 88 % 1029,0 hPa 0,0 l/m 0 min 0 min 49 W/m 3,2 km/h (1 Bft) 97,87 %
21.09.2021 08:24 10,5 C 10,0 C 8,9 C 88 % 1029,1 hPa 0,0 l/m 0 min 0 min 49 W/m 0,0 km/h (0 Bft) 97,87 %
21.09.2021 08:26 10,5 C 10,6 C 8,9 C 88 % 1029,2 hPa 0,0 l/m 0 min 0 min 47 W/m 3,2 km/h (1 Bft) 97,87 %
21.09.2021 08:28 10,5 C 10,6 C 8,9 C 88 % 1029,1 hPa 0,0 l/m 0 min 0 min 47 W/m 3,2 km/h (1 Bft) 100,00 %
21.09.2021 08:30 10,5 C 10,6 C 8,9 C 89 % 1029,2 hPa 0,0 l/m 0 min 0 min 46 W/m 0,0 km/h (0 Bft) 100,00 %
21.09.2021 08:32 10,5 C 10,6 C 8,9 C 89 % 1029,2 hPa 0,0 l/m 0 min 0 min 46 W/m 0,0 km/h (0 Bft) 97,22 %
21.09.2021 08:34 10,5 C 10,6 C 8,9 C 89 % 1029,2 hPa 0,0 l/m 0 min 0 min 46 W/m 0,0 km/h (0 Bft) 97,87 %
21.09.2021 08:36 10,5 C 10,6 C 8,9 C 89 % 1029,2 hPa 0,0 l/m 0 min 0 min 43 W/m 3,2 km/h (1 Bft) 97,87 %
21.09.2021 08:38 10,5 C 10,6 C 8,9 C 89 % 1029,3 hPa 0,0 l/m 0 min 0 min 41 W/m 0,0 km/h (0 Bft) 97,87 %
21.09.2021 08:40 10,5 C 10,6 C 8,9 C 89 % 1029,3 hPa 0,0 l/m 0 min 0 min 39 W/m 3,2 km/h (1 Bft) 97,87 %
21.09.2021 08:42 10,5 C 10,6 C 8,9 C 89 % 1029,3 hPa 0,0 l/m 0 min 0 min 37 W/m 3,2 km/h (1 Bft) 97,83 %
21.09.2021 08:44 10,6 C 10,6 C 8,9 C 89 % 1029,3 hPa 0,0 l/m 0 min 0 min 34 W/m 3,2 km/h (1 Bft) 97,87 %
21.09.2021 08:45 10,6 C 10,6 C 8,9 C 89 % 1029,2 hPa 0,0 l/m 0 min 0 min 35 W/m 3,2 km/h (1 Bft) 95,74 %
21.09.2021 08:48 10,6 C 10,6 C 8,9 C 89 % 1029,3 hPa 0,0 l/m 0 min 0 min 35 W/m 3,2 km/h (1 Bft) 97,87 %
21.09.2021 08:50 10,6 C 10,6 C 8,9 C 89 % 1029,3 hPa 0,0 l/m 0 min 0 min 35 W/m 0,0 km/h (0 Bft) 97,87 %
21.09.2021 08:52 10,7 C 10,6 C 8,9 C 89 % 1029,3 hPa 0,0 l/m 0 min 0 min 35 W/m 0,0 km/h (0 Bft) 98,28 %
21.09.2021 08:54 10,7 C 10,6 C 8,9 C 89 % 1029,3 hPa 0,0 l/m 0 min 0 min 36 W/m 3,2 km/h (1 Bft) 97,14 %
21.09.2021 08:56 10,8 C 10,6 C 8,9 C 89 % 1029,3 hPa 0,0 l/m 0 min 0 min 39 W/m 3,2 km/h (1 Bft) 97,87 %
21.09.2021 08:58 10,8 C 10,6 C 8,9 C 89 % 1029,4 hPa 0,0 l/m 0 min 0 min 42 W/m 6,4 km/h (2 Bft) 95,74 %
21.09.2021 09:00 10,8 C 10,6 C 8,9 C 89 % 1029,5 hPa 0,0 l/m 0 min 0 min 46 W/m 3,2 km/h (1 Bft) 96,61 %
21.09.2021 09:02 10,8 C 11,1 C 8,9 C 89 % 1029,5 hPa 0,0 l/m 0 min 0 min 46 W/m 3,2 km/h (1 Bft) 100,00 %
21.09.2021 09:04 10,8 C 11,1 C 9,5 C 89 % 1029,5 hPa 0,0 l/m 0 min 0 min 46 W/m 6,4 km/h (2 Bft) 100,00 %
21.09.2021 09:06 10,8 C 11,1 C 9,5 C 89 % 1029,5 hPa 0,0 l/m 0 min 0 min 45 W/m 3,2 km/h (1 Bft) 98,28 %
21.09.2021 09:08 10,9 C 11,1 C 9,5 C 89 % 1029,6 hPa 0,0 l/m 0 min 0 min 45 W/m 3,2 km/h (1 Bft) 100,00 %
21.09.2021 09:10 10,9 C 11,1 C 9,5 C 89 % 1029,6 hPa 0,0 l/m 0 min 0 min 46 W/m 3,2 km/h (1 Bft) 100,00 %
21.09.2021 09:12 10,9 C 11,1 C 9,5 C 89 % 1029,6 hPa 0,0 l/m 0 min 0 min 45 W/m 3,2 km/h (1 Bft) 100,00 %
21.09.2021 09:14 10,9 C 11,1 C 9,5 C 89 % 1029,6 hPa 0,0 l/m 0 min 0 min 42 W/m 6,4 km/h (2 Bft) 100,00 %
21.09.2021 09:16 11,0 C 11,1 C 9,5 C 89 % 1029,6 hPa 0,0 l/m 0 min 0 min 46 W/m 3,2 km/h (1 Bft) 100,00 %
21.09.2021 09:18 11,0 C 11,1 C 9,5 C 89 % 1029,6 hPa 0,0 l/m 0 min 0 min 50 W/m 3,2 km/h (1 Bft) 100,00 %
21.09.2021 09:20 11,0 C 11,7 C 9,5 C 89 % 1029,6 hPa 0,0 l/m 0 min 0 min 51 W/m 3,2 km/h (1 Bft) 97,87 %
21.09.2021 09:22 11,1 C 11,7 C 9,5 C 89 % 1029,6 hPa 0,0 l/m 0 min 0 min 51 W/m 6,4 km/h (2 Bft) 100,00 %
21.09.2021 09:24 11,1 C 11,7 C 9,5 C 89 % 1029,7 hPa 0,0 l/m 0 min 0 min 52 W/m 3,2 km/h (1 Bft) 100,00 %
21.09.2021 09:26 11,1 C 11,7 C 9,5 C 89 % 1029,7 hPa 0,0 l/m 0 min 0 min 53 W/m 3,2 km/h (1 Bft) 100,00 %
21.09.2021 09:28 11,1 C 11,7 C 10,0 C 88 % 1029,7 hPa 0,0 l/m 0 min 0 min 55 W/m 3,2 km/h (1 Bft) 100,00 %
21.09.2021 09:30 11,2 C 11,7 C 10,0 C 88 % 1029,8 hPa 0,0 l/m 0 min 0 min 56 W/m 3,2 km/h (1 Bft) 100,00 %
21.09.2021 09:32 11,3 C 11,7 C 10,0 C 88 % 1029,8 hPa 0,0 l/m 0 min 0 min 59 W/m 3,2 km/h (1 Bft) 97,87 %
21.09.2021 09:34 11,3 C 11,7 C 10,0 C 88 % 1029,8 hPa 0,0 l/m 0 min 0 min 55 W/m 3,2 km/h (1 Bft) 100,00 %
21.09.2021 09:36 11,4 C 12,2 C 10,0 C 88 % 1029,8 hPa 0,0 l/m 0 min 0 min 60 W/m 3,2 km/h (1 Bft) 100,00 %
21.09.2021 09:38 11,5 C 12,2 C 10,0 C 87 % 1029,8 hPa 0,0 l/m 0 min 0 min 67 W/m 3,2 km/h (1 Bft) 100,00 %
21.09.2021 09:40 11,5 C 12,2 C 10,6 C 87 % 1029,8 hPa 0,0 l/m 0 min 0 min 75 W/m 3,2 km/h (1 Bft) 100,00 %
21.09.2021 09:42 11,5 C 12,2 C 10,6 C 87 % 1029,8 hPa 0,0 l/m 0 min 0 min 89 W/m 6,4 km/h (2 Bft) 100,00 %
21.09.2021 09:44 11,6 C 12,8 C 10,6 C 87 % 1029,8 hPa 0,0 l/m 0 min 0 min 70 W/m 3,2 km/h (1 Bft) 100,00 %
21.09.2021 09:46 11,7 C 12,8 C 10,6 C 87 % 1029,8 hPa 0,0 l/m 0 min 0 min 74 W/m 3,2 km/h (1 Bft) 100,00 %
21.09.2021 09:48 11,8 C 12,8 C 10,6 C 86 % 1029,9 hPa 0,0 l/m 0 min 0 min 79 W/m 6,4 km/h (2 Bft) 100,00 %
21.09.2021 09:50 11,9 C 12,8 C 10,6 C 86 % 1029,8 hPa 0,0 l/m 0 min 0 min 92 W/m 3,2 km/h (1 Bft) 100,00 %
21.09.2021 09:52 12,0 C 12,8 C 10,6 C 85 % 1029,8 hPa 0,0 l/m 0 min 0 min 109 W/m 6,4 km/h (2 Bft) 100,00 %
21.09.2021 09:54 12,1 C 13,3 C 11,1 C 85 % 1029,9 hPa 0,0 l/m 2 min 0 min 201 W/m 3,2 km/h (1 Bft) 97,87 %
21.09.2021 09:56 12,1 C 13,3 C 11,1 C 85 % 1029,9 hPa 0,0 l/m 0 min 0 min 151 W/m 6,4 km/h (2 Bft) 97,87 %
21.09.2021 09:58 12,2 C 13,9 C 11,1 C 85 % 1030,0 hPa 0,0 l/m 0 min 0 min 108 W/m 6,4 km/h (2 Bft) 98,15 %
21.09.2021 10:00 12,3 C 13,9 C 11,1 C 84 % 1030,0 hPa 0,0 l/m 0 min 0 min 101 W/m 3,2 km/h (1 Bft) 100,00 %
21.09.2021 10:02 12,4 C 14,4 C 11,1 C 84 % 1029,9 hPa 0,0 l/m 0 min 0 min 131 W/m 3,2 km/h (1 Bft) 100,00 %
21.09.2021 10:04 12,4 C 15,0 C 11,1 C 83 % 1030,0 hPa 0,0 l/m 0 min 0 min 164 W/m 3,2 km/h (1 Bft) 97,87 %
21.09.2021 10:06 12,5 C 14,4 C 11,1 C 83 % 1030,0 hPa 0,0 l/m 0 min 0 min 172 W/m 3,2 km/h (1 Bft) 100,00 %
21.09.2021 10:08 12,6 C 14,4 C 11,1 C 82 % 1030,0 hPa 0,0 l/m 0 min 0 min 161 W/m 6,4 km/h (2 Bft) 97,83 %
21.09.2021 10:10 12,8 C 14,4 C 11,1 C 81 % 1030,0 hPa 0,0 l/m 0 min 0 min 158 W/m 6,4 km/h (2 Bft) 100,00 %
21.09.2021 10:12 12,8 C 14,4 C 11,1 C 80 % 1030,0 hPa 0,0 l/m 0 min 0 min 204 W/m 6,4 km/h (2 Bft) 97,87 %
21.09.2021 10:14 12,9 C 14,4 C 11,1 C 80 % 1029,9 hPa 0,0 l/m 2 min 0 min 220 W/m 3,2 km/h (1 Bft) 97,87 %
21.09.2021 10:16 13,0 C 14,4 C 11,1 C 79 % 1030,0 hPa 0,0 l/m 0 min 0 min 195 W/m 6,4 km/h (2 Bft) 97,87 %
21.09.2021 10:18 13,1 C 14,4 C 11,7 C 79 % 1030,0 hPa 0,0 l/m 0 min 0 min 139 W/m 3,2 km/h (1 Bft) 93,62 %
21.09.2021 10:20 13,2 C 14,4 C 11,7 C 79 % 1030,1 hPa 0,0 l/m 0 min 0 min 111 W/m 6,4 km/h (2 Bft) 93,48 %
21.09.2021 10:22 13,3 C 13,9 C 11,7 C 78 % 1030,1 hPa 0,0 l/m 0 min 0 min 143 W/m 6,4 km/h (2 Bft) 97,87 %
21.09.2021 10:24 13,3 C 13,9 C 11,7 C 77 % 1030,2 hPa 0,0 l/m 0 min 0 min 120 W/m 6,4 km/h (2 Bft) 97,87 %
21.09.2021 10:26 13,4 C 13,9 C 11,7 C 77 % 1030,1 hPa 0,0 l/m 0 min 0 min 100 W/m 6,4 km/h (2 Bft) 89,36 %
21.09.2021 10:28 13,4 C 14,4 C 11,7 C 76 % 1030,1 hPa 0,0 l/m 0 min 0 min 120 W/m 6,4 km/h (2 Bft) 91,49 %
21.09.2021 10:30 13,5 C 14,4 C 11,7 C 76 % 1030,2 hPa 0,0 l/m 0 min 0 min 85 W/m 3,2 km/h (1 Bft) 93,48 %
21.09.2021 10:32 13,6 C 14,4 C 11,7 C 76 % 1030,2 hPa 0,0 l/m 0 min 0 min 88 W/m 6,4 km/h (2 Bft) 91,49 %
21.09.2021 10:34 13,7 C 14,4 C 11,7 C 76 % 1030,2 hPa 0,0 l/m 0 min 0 min 90 W/m 3,2 km/h (1 Bft) 95,74 %
21.09.2021 10:36 13,7 C 14,4 C 11,7 C 75 % 1030,3 hPa 0,0 l/m 0 min 0 min 92 W/m 3,2 km/h (1 Bft) 89,36 %
21.09.2021 10:38 13,8 C 14,4 C 12,3 C 75 % 1030,2 hPa 0,0 l/m 0 min 0 min 92 W/m 3,2 km/h (1 Bft) 93,62 %
21.09.2021 10:40 13,9 C 15,0 C 12,3 C 75 % 1030,2 hPa 0,0 l/m 0 min 0 min 107 W/m 6,4 km/h (2 Bft) 93,62 %
21.09.2021 10:42 14,0 C 15,0 C 12,3 C 74 % 1030,3 hPa 0,0 l/m 0 min 0 min 109 W/m 3,2 km/h (1 Bft) 93,48 %
21.09.2021 10:44 14,1 C 15,0 C 12,3 C 74 % 1030,2 hPa 0,0 l/m 0 min 0 min 113 W/m 3,2 km/h (1 Bft) 93,62 %
21.09.2021 10:46 14,2 C 15,0 C 12,3 C 73 % 1030,2 hPa 0,0 l/m 0 min 0 min 143 W/m 6,4 km/h (2 Bft) 93,62 %
21.09.2021 10:48 14,2 C 15,0 C 12,8 C 73 % 1030,3 hPa 0,0 l/m 0 min 0 min 213 W/m 9,7 km/h (2 Bft) 95,74 %
21.09.2021 10:50 14,2 C 15,6 C 12,8 C 72 % 1030,3 hPa 0,0 l/m 0 min 0 min 165 W/m 6,4 km/h (2 Bft) 93,62 %
21.09.2021 10:52 14,3 C 15,6 C 12,8 C 71 % 1030,4 hPa 0,0 l/m 0 min 0 min 141 W/m 3,2 km/h (1 Bft) 93,62 %
21.09.2021 10:54 14,5 C 15,6 C 12,8 C 71 % 1030,4 hPa 0,0 l/m 0 min 0 min 150 W/m 6,4 km/h (2 Bft) 91,30 %
21.09.2021 10:56 14,5 C 15,6 C 12,8 C 70 % 1030,5 hPa 0,0 l/m 0 min 0 min 157 W/m 6,4 km/h (2 Bft) 95,74 %
21.09.2021 10:58 14,6 C 15,6 C 13,4 C 70 % 1030,4 hPa 0,0 l/m 0 min 0 min 154 W/m 6,4 km/h (2 Bft) 95,74 %
21.09.2021 11:00 14,8 C 15,6 C 13,4 C 70 % 1030,5 hPa 0,0 l/m 0 min 0 min 162 W/m 6,4 km/h (2 Bft) 93,62 %
21.09.2021 11:02 14,9 C 16,1 C 13,4 C 69 % 1030,4 hPa 0,0 l/m 2 min 0 min 258 W/m 6,4 km/h (2 Bft) 93,62 %
21.09.2021 11:04 14,9 C 16,1 C 13,4 C 67 % 1030,4 hPa 0,0 l/m 0 min 0 min 229 W/m 9,7 km/h (2 Bft) 93,62 %
21.09.2021 11:06 15,0 C 16,1 C 13,4 C 66 % 1030,4 hPa 0,0 l/m 0 min 0 min 240 W/m 3,2 km/h (1 Bft) 95,65 %
21.09.2021 11:08 15,1 C 16,1 C 13,4 C 66 % 1030,4 hPa 0,0 l/m 2 min 0 min 306 W/m 6,4 km/h (2 Bft) 97,87 %
21.09.2021 11:10 15,2 C 16,7 C 13,4 C 67 % 1030,4 hPa 0,0 l/m 2 min 0 min 276 W/m 6,4 km/h (2 Bft) 97,87 %
21.09.2021 11:12 15,3 C 16,7 C 13,4 C 67 % 1030,4 hPa 0,0 l/m 2 min 0 min 261 W/m 6,4 km/h (2 Bft) 97,87 %
21.09.2021 11:14 15,4 C 16,7 C 13,4 C 67 % 1030,4 hPa 0,0 l/m 0 min 0 min 244 W/m 6,4 km/h (2 Bft) 97,87 %
21.09.2021 11:16 15,5 C 17,2 C 13,9 C 67 % 1030,4 hPa 0,0 l/m 2 min 0 min 293 W/m 9,7 km/h (2 Bft) 95,74 %
21.09.2021 11:18 15,5 C 17,8 C 13,9 C 67 % 1030,4 hPa 0,0 l/m 0 min 0 min 224 W/m 12,9 km/h (3 Bft) 97,83 %
21.09.2021 11:20 15,6 C 18,3 C 13,9 C 66 % 1030,5 hPa 0,0 l/m 0 min 0 min 221 W/m 6,4 km/h (2 Bft) 97,87 %
21.09.2021 11:22 15,6 C 18,3 C 13,9 C 66 % 1030,5 hPa 0,0 l/m 0 min 0 min 210 W/m 6,4 km/h (2 Bft) 97,87 %
21.09.2021 11:24 15,8 C 18,9 C 13,9 C 65 % 1030,5 hPa 0,0 l/m 0 min 0 min 180 W/m 9,7 km/h (2 Bft) 97,87 %
21.09.2021 11:26 15,8 C 18,9 C 14,5 C 65 % 1030,6 hPa 0,0 l/m 0 min 0 min 182 W/m 9,7 km/h (2 Bft) 97,87 %
21.09.2021 11:28 15,9 C 18,9 C 14,5 C 64 % 1030,6 hPa 0,0 l/m 0 min 0 min 202 W/m 16,1 km/h (3 Bft) 97,87 %
21.09.2021 11:30 15,9 C 18,3 C 14,5 C 63 % 1030,5 hPa 0,0 l/m 2 min 0 min 305 W/m 9,7 km/h (2 Bft) 100,00 %
21.09.2021 11:32 16,0 C 18,3 C 15,0 C 63 % 1030,5 hPa 0,0 l/m 2 min 0 min 292 W/m 12,9 km/h (3 Bft) 97,87 %
21.09.2021 11:34 16,1 C 18,9 C 15,0 C 62 % 1030,5 hPa 0,0 l/m 2 min 0 min 337 W/m 6,4 km/h (2 Bft) 100,00 %
21.09.2021 11:36 16,1 C 18,3 C 15,6 C 63 % 1030,4 hPa 0,0 l/m 2 min 0 min 440 W/m 9,7 km/h (2 Bft) 100,00 %
21.09.2021 11:38 16,2 C 18,9 C 16,1 C 64 % 1030,4 hPa 0,0 l/m 2 min 0 min 479 W/m 6,4 km/h (2 Bft) 100,00 %
21.09.2021 11:40 16,3 C 18,9 C 17,3 C 62 % 1030,4 hPa 0,0 l/m 2 min 0 min 490 W/m 6,4 km/h (2 Bft) 100,00 %
21.09.2021 11:42 16,4 C 19,4 C 17,8 C 63 % 1030,4 hPa 0,0 l/m 2 min 0 min 502 W/m 3,2 km/h (1 Bft) 100,00 %
21.09.2021 11:44 16,5 C 19,4 C 18,4 C 62 % 1030,4 hPa 0,0 l/m 2 min 0 min 511 W/m 6,4 km/h (2 Bft) 100,00 %
21.09.2021 11:46 16,5 C 19,4 C 18,9 C 62 % 1030,4 hPa 0,0 l/m 2 min 0 min 500 W/m 6,4 km/h (2 Bft) 100,00 %
21.09.2021 11:48 16,6 C 19,4 C 18,9 C 61 % 1030,4 hPa 0,0 l/m 2 min 0 min 515 W/m 9,7 km/h (2 Bft) 100,00 %
21.09.2021 11:50 16,6 C 19,4 C 18,9 C 61 % 1030,4 hPa 0,0 l/m 2 min 0 min 544 W/m 6,4 km/h (2 Bft) 100,00 %
21.09.2021 11:52 16,8 C 20,0 C 19,5 C 61 % 1030,4 hPa 0,0 l/m 2 min 0 min 564 W/m 6,4 km/h (2 Bft) 100,00 %
21.09.2021 11:54 16,9 C 20,0 C 20,0 C 61 % 1030,4 hPa 0,0 l/m 2 min 0 min 554 W/m 6,4 km/h (2 Bft) 100,00 %
21.09.2021 11:56 16,9 C 20,0 C 19,5 C 60 % 1030,5 hPa 0,0 l/m 2 min 0 min 531 W/m 6,4 km/h (2 Bft) 100,00 %
21.09.2021 11:58 17,0 C 19,4 C 19,5 C 60 % 1030,4 hPa 0,0 l/m 2 min 0 min 576 W/m 6,4 km/h (2 Bft) 100,00 %
21.09.2021 12:00 17,0 C 19,4 C 20,0 C 59 % 1030,4 hPa 0,0 l/m 2 min 0 min 598 W/m 3,2 km/h (1 Bft) 97,87 %
21.09.2021 12:02 17,1 C 19,4 C 20,0 C 60 % 1030,4 hPa 0,0 l/m 2 min 0 min 610 W/m 6,4 km/h (2 Bft) 97,87 %
21.09.2021 12:04 17,2 C 19,4 C 18,9 C 59 % 1030,5 hPa 0,0 l/m 2 min 0 min 605 W/m 6,4 km/h (2 Bft) 97,83 %
21.09.2021 12:08 17,3 C 20,0 C 17,8 C 59 % 1030,5 hPa 0,0 l/m 4 min 0 min 609 W/m 9,7 km/h (2 Bft) 98,95 %
21.09.2021 12:10 17,3 C 20,0 C 17,8 C 59 % 1030,5 hPa 0,0 l/m 2 min 0 min 619 W/m 6,4 km/h (2 Bft) 100,00 %
21.09.2021 12:12 17,3 C 19,4 C 17,3 C 58 % 1030,6 hPa 0,0 l/m 2 min 0 min 569 W/m 9,7 km/h (2 Bft) 100,00 %
21.09.2021 12:14 17,3 C 19,4 C 16,7 C 60 % 1030,5 hPa 0,0 l/m 2 min 0 min 468 W/m 12,9 km/h (3 Bft) 100,00 %
21.09.2021 12:16 17,3 C 19,4 C 16,1 C 59 % 1030,6 hPa 0,0 l/m 2 min 0 min 523 W/m 9,7 km/h (2 Bft) 100,00 %
21.09.2021 12:18 17,3 C 19,4 C 15,6 C 58 % 1030,6 hPa 0,0 l/m 2 min 0 min 594 W/m 9,7 km/h (2 Bft) 100,00 %
21.09.2021 12:20 17,3 C 19,4 C 15,6 C 58 % 1030,6 hPa 0,0 l/m 2 min 0 min 535 W/m 6,4 km/h (2 Bft) 100,00 %
21.09.2021 12:22 17,3 C 19,4 C 15,0 C 58 % 1030,5 hPa 0,0 l/m 2 min 0 min 470 W/m 9,7 km/h (2 Bft) 100,00 %
21.09.2021 12:24 17,3 C 18,9 C 15,0 C 57 % 1030,5 hPa 0,0 l/m 0 min 0 min 241 W/m 9,7 km/h (2 Bft) 100,00 %
21.09.2021 12:26 17,3 C 18,9 C 15,0 C 57 % 1030,5 hPa 0,0 l/m 2 min 0 min 343 W/m 6,4 km/h (2 Bft) 100,00 %
21.09.2021 12:28 17,3 C 18,9 C 15,0 C 57 % 1030,5 hPa 0,0 l/m 2 min 0 min 592 W/m 6,4 km/h (2 Bft) 97,83 %
21.09.2021 12:30 17,3 C 18,9 C 15,0 C 57 % 1030,5 hPa 0,0 l/m 2 min 0 min 594 W/m 6,4 km/h (2 Bft) 100,00 %
21.09.2021 12:32 17,4 C 18,9 C 15,0 C 57 % 1030,5 hPa 0,0 l/m 2 min 0 min 563 W/m 6,4 km/h (2 Bft) 95,83 %
21.09.2021 12:34 17,3 C 18,3 C 15,0 C 55 % 1030,5 hPa 0,0 l/m 2 min 0 min 569 W/m 9,7 km/h (2 Bft) 100,00 %
21.09.2021 12:36 17,3 C 18,3 C 15,0 C 57 % 1030,6 hPa 0,0 l/m 2 min 0 min 507 W/m 3,2 km/h (1 Bft) 100,00 %
21.09.2021 12:38 17,3 C 17,8 C 14,5 C 56 % 1030,6 hPa 0,0 l/m 2 min 0 min 348 W/m 3,2 km/h (1 Bft) 91,49 %
21.09.2021 12:40 17,3 C 17,8 C 14,5 C 57 % 1030,5 hPa 0,0 l/m 0 min 0 min 269 W/m 9,7 km/h (2 Bft) 95,65 %
21.09.2021 12:42 17,3 C 17,8 C 14,5 C 57 % 1030,5 hPa 0,0 l/m 0 min 0 min 204 W/m 6,4 km/h (2 Bft) 95,74 %
21.09.2021 12:44 17,3 C 17,8 C 14,5 C 57 % 1030,5 hPa 0,0 l/m 0 min 0 min 200 W/m 6,4 km/h (2 Bft) 95,74 %
21.09.2021 12:46 17,3 C 17,8 C 14,5 C 57 % 1030,5 hPa 0,0 l/m 0 min 0 min 196 W/m 9,7 km/h (2 Bft) 95,74 %
21.09.2021 12:48 17,3 C 17,8 C 14,5 C 59 % 1030,5 hPa 0,0 l/m 0 min 0 min 196 W/m 9,7 km/h (2 Bft) 95,74 %
21.09.2021 12:50 17,3 C 17,8 C 14,5 C 59 % 1030,5 hPa 0,0 l/m 0 min 0 min 193 W/m 9,7 km/h (2 Bft) 95,74 %
21.09.2021 12:52 17,3 C 17,8 C 14,5 C 59 % 1030,6 hPa 0,0 l/m 0 min 0 min 171 W/m 6,4 km/h (2 Bft) 95,65 %
21.09.2021 12:54 17,3 C 17,8 C 14,5 C 58 % 1030,5 hPa 0,0 l/m 0 min 0 min 160 W/m 12,9 km/h (3 Bft) 93,62 %
21.09.2021 12:56 17,3 C 17,8 C 14,5 C 58 % 1030,6 hPa 0,0 l/m 0 min 0 min 151 W/m 6,4 km/h (2 Bft) 95,74 %
21.09.2021 12:58 17,3 C 17,8 C 14,5 C 58 % 1030,6 hPa 0,0 l/m 0 min 0 min 146 W/m 9,7 km/h (2 Bft) 95,74 %
21.09.2021 13:00 17,3 C 17,8 C 14,5 C 58 % 1030,5 hPa 0,0 l/m 0 min 0 min 162 W/m 6,4 km/h (2 Bft) 95,74 %
21.09.2021 13:02 17,3 C 17,8 C 14,5 C 57 % 1030,5 hPa 0,0 l/m 0 min 0 min 155 W/m 6,4 km/h (2 Bft) 95,74 %
21.09.2021 13:04 17,2 C 17,8 C 14,5 C 57 % 1030,4 hPa 0,0 l/m 0 min 0 min 142 W/m 9,7 km/h (2 Bft) 97,83 %
21.09.2021 13:06 17,1 C 17,8 C 14,5 C 56 % 1030,3 hPa 0,0 l/m 0 min 0 min 148 W/m 6,4 km/h (2 Bft) 93,62 %
21.09.2021 13:08 17,1 C 17,8 C 14,5 C 56 % 1030,4 hPa 0,0 l/m 0 min 0 min 152 W/m 6,4 km/h (2 Bft) 95,74 %
21.09.2021 13:10 17,1 C 17,8 C 14,5 C 57 % 1030,3 hPa 0,0 l/m 0 min 0 min 166 W/m 6,4 km/h (2 Bft) 97,87 %
21.09.2021 13:12 17,2 C 17,8 C 15,0 C 58 % 1030,3 hPa 0,0 l/m 0 min 0 min 227 W/m 6,4 km/h (2 Bft) 95,74 %
21.09.2021 13:14 17,3 C 17,8 C 15,0 C 57 % 1030,4 hPa 0,0 l/m 0 min 0 min 284 W/m 6,4 km/h (2 Bft) 97,87 %
21.09.2021 13:16 17,4 C 18,3 C 15,0 C 58 % 1030,4 hPa 0,0 l/m 2 min 0 min 353 W/m 3,2 km/h (1 Bft) 97,83 %
21.09.2021 13:18 17,4 C 17,8 C 15,0 C 57 % 1030,4 hPa 0,0 l/m 2 min 0 min 361 W/m 6,4 km/h (2 Bft) 97,87 %
21.09.2021 13:20 17,4 C 17,8 C 15,0 C 56 % 1030,4 hPa 0,0 l/m 0 min 0 min 290 W/m 6,4 km/h (2 Bft) 97,87 %
21.09.2021 13:22 17,5 C 17,8 C 15,0 C 57 % 1030,3 hPa 0,0 l/m 2 min 0 min 433 W/m 6,4 km/h (2 Bft) 97,87 %
21.09.2021 13:24 17,5 C 17,8 C 15,0 C 57 % 1030,4 hPa 0,0 l/m 2 min 0 min 554 W/m 6,4 km/h (2 Bft) 100,00 %
21.09.2021 13:26 17,5 C 18,3 C 15,0 C 56 % 1030,4 hPa 0,0 l/m 2 min 0 min 363 W/m 9,7 km/h (2 Bft) 100,00 %
21.09.2021 13:28 17,6 C 18,3 C 15,0 C 57 % 1030,4 hPa 0,0 l/m 2 min 0 min 381 W/m 3,2 km/h (1 Bft) 97,83 %
21.09.2021 13:30 17,6 C 18,3 C 15,6 C 57 % 1030,4 hPa 0,0 l/m 2 min 0 min 541 W/m 6,4 km/h (2 Bft) 100,00 %
21.09.2021 13:32 17,7 C 18,9 C 15,6 C 57 % 1030,4 hPa 0,0 l/m 2 min 0 min 608 W/m 6,4 km/h (2 Bft) 100,00 %
21.09.2021 13:34 17,8 C 18,3 C 15,6 C 56 % 1030,5 hPa 0,0 l/m 2 min 0 min 546 W/m 16,1 km/h (3 Bft) 100,00 %
21.09.2021 13:36 17,6 C 18,3 C 15,0 C 56 % 1030,5 hPa 0,0 l/m 2 min 0 min 550 W/m 12,9 km/h (3 Bft) 97,87 %
21.09.2021 13:38 17,6 C 18,9 C 15,0 C 56 % 1030,5 hPa 0,0 l/m 2 min 0 min 537 W/m 9,7 km/h (2 Bft) 100,00 %
21.09.2021 13:40 17,6 C 18,9 C 15,0 C 56 % 1030,5 hPa 0,0 l/m 2 min 0 min 588 W/m 9,7 km/h (2 Bft) 100,00 %
21.09.2021 13:42 17,6 C 18,9 C 15,0 C 56 % 1030,5 hPa 0,0 l/m 2 min 0 min 587 W/m 6,4 km/h (2 Bft) 100,00 %
21.09.2021 13:44 17,7 C 18,9 C 15,0 C 58 % 1030,5 hPa 0,0 l/m 2 min 0 min 522 W/m 6,4 km/h (2 Bft) 97,87 %
21.09.2021 13:46 17,8 C 19,4 C 15,0 C 58 % 1030,5 hPa 0,0 l/m 2 min 0 min 529 W/m 9,7 km/h (2 Bft) 100,00 %
21.09.2021 13:48 17,8 C 20,0 C 15,0 C 58 % 1030,4 hPa 0,0 l/m 2 min 0 min 606 W/m 3,2 km/h (1 Bft) 100,00 %
21.09.2021 13:50 17,9 C 20,6 C 15,0 C 58 % 1030,4 hPa 0,0 l/m 2 min 0 min 582 W/m 9,7 km/h (2 Bft) 97,83 %
21.09.2021 13:52 17,9 C 21,1 C 15,0 C 57 % 1030,4 hPa 0,0 l/m 2 min 0 min 585 W/m 9,7 km/h (2 Bft) 100,00 %
21.09.2021 13:54 18,0 C 21,1 C 15,0 C 56 % 1030,4 hPa 0,0 l/m 2 min 0 min 569 W/m 12,9 km/h (3 Bft) 100,00 %
21.09.2021 13:56 18,0 C 21,7 C 15,0 C 55 % 1030,5 hPa 0,0 l/m 2 min 0 min 566 W/m 9,7 km/h (2 Bft) 100,00 %
21.09.2021 13:58 18,0 C 22,8 C 15,0 C 55 % 1030,4 hPa 0,0 l/m 2 min 0 min 582 W/m 6,4 km/h (2 Bft) 100,00 %
21.09.2021 14:00 18,1 C 23,3 C 15,0 C 56 % 1030,4 hPa 0,0 l/m 2 min 0 min 605 W/m 6,4 km/h (2 Bft) 97,87 %
21.09.2021 14:02 18,1 C 22,8 C 15,0 C 56 % 1030,4 hPa 0,0 l/m 2 min 0 min 572 W/m 6,4 km/h (2 Bft) 100,00 %
21.09.2021 14:04 18,3 C 22,8 C 15,0 C 56 % 1030,4 hPa 0,0 l/m 2 min 0 min 505 W/m 3,2 km/h (1 Bft) 100,00 %
21.09.2021 14:06 18,3 C 22,8 C 15,6 C 55 % 1030,4 hPa 0,0 l/m 2 min 0 min 499 W/m 6,4 km/h (2 Bft) 97,87 %
21.09.2021 14:08 18,4 C 22,8 C 15,6 C 56 % 1030,4 hPa 0,0 l/m 2 min 0 min 487 W/m 6,4 km/h (2 Bft) 100,00 %
21.09.2021 14:10 18,5 C 22,8 C 15,6 C 56 % 1030,4 hPa 0,0 l/m 2 min 0 min 494 W/m 9,7 km/h (2 Bft) 97,87 %
21.09.2021 14:12 18,5 C 22,2 C 15,6 C 56 % 1030,4 hPa 0,0 l/m 2 min 0 min 478 W/m 12,9 km/h (3 Bft) 97,87 %
21.09.2021 14:14 18,5 C 22,2 C 15,6 C 56 % 1030,4 hPa 0,0 l/m 2 min 0 min 497 W/m 9,7 km/h (2 Bft) 95,65 %
21.09.2021 14:16 18,5 C 22,8 C 15,0 C 54 % 1030,4 hPa 0,0 l/m 2 min 0 min 474 W/m 6,4 km/h (2 Bft) 95,74 %
21.09.2021 14:18 18,4 C 22,8 C 15,0 C 54 % 1030,3 hPa 0,0 l/m 2 min 0 min 483 W/m 6,4 km/h (2 Bft) 97,87 %
21.09.2021 14:20 18,3 C 22,8 C 15,0 C 54 % 1030,4 hPa 0,0 l/m 2 min 0 min 453 W/m 6,4 km/h (2 Bft) 97,87 %
21.09.2021 14:22 18,4 C 22,8 C 15,0 C 56 % 1030,4 hPa 0,0 l/m 2 min 0 min 425 W/m 6,4 km/h (2 Bft) 97,87 %
21.09.2021 14:24 18,4 C 22,2 C 15,0 C 55 % 1030,3 hPa 0,0 l/m 2 min 0 min 479 W/m 12,9 km/h (3 Bft) 97,87 %
21.09.2021 14:26 18,4 C 22,2 C 15,0 C 56 % 1030,3 hPa 0,0 l/m 2 min 0 min 491 W/m 6,4 km/h (2 Bft) 97,83 %
21.09.2021 14:28 18,4 C 22,2 C 15,0 C 56 % 1030,4 hPa 0,0 l/m 2 min 0 min 539 W/m 6,4 km/h (2 Bft) 97,87 %
21.09.2021 14:30 18,4 C 22,8 C 15,0 C 56 % 1030,3 hPa 0,0 l/m 2 min 0 min 485 W/m 6,4 km/h (2 Bft) 97,87 %
21.09.2021 14:32 18,4 C 22,2 C 15,0 C 55 % 1030,3 hPa 0,0 l/m 2 min 0 min 445 W/m 6,4 km/h (2 Bft) 97,87 %
21.09.2021 14:34 18,5 C 22,2 C 15,0 C 56 % 1030,3 hPa 0,0 l/m 2 min 0 min 438 W/m 12,9 km/h (3 Bft) 97,87 %
21.09.2021 14:36 18,5 C 21,7 C 15,0 C 55 % 1030,3 hPa 0,0 l/m 2 min 0 min 468 W/m 12,9 km/h (3 Bft) 95,74 %
21.09.2021 14:38 18,5 C 21,1 C 15,0 C 56 % 1030,3 hPa 0,0 l/m 2 min 0 min 440 W/m 6,4 km/h (2 Bft) 95,65 %
21.09.2021 14:40 18,5 C 21,1 C 15,0 C 56 % 1030,3 hPa 0,0 l/m 2 min 0 min 419 W/m 6,4 km/h (2 Bft) 97,87 %
21.09.2021 14:42 18,6 C 21,7 C 15,6 C 57 % 1030,3 hPa 0,0 l/m 2 min 0 min 486 W/m 6,4 km/h (2 Bft) 97,87 %
21.09.2021 14:44 18,6 C 21,7 C 15,6 C 55 % 1030,3 hPa 0,0 l/m 2 min 0 min 496 W/m 6,4 km/h (2 Bft) 95,74 %
21.09.2021 14:46 18,6 C 21,1 C 15,6 C 56 % 1030,2 hPa 0,0 l/m 2 min 0 min 523 W/m 6,4 km/h (2 Bft) 95,74 %
21.09.2021 14:48 18,7 C 21,1 C 15,6 C 55 % 1030,2 hPa 0,0 l/m 2 min 0 min 488 W/m 6,4 km/h (2 Bft) 97,87 %
21.09.2021 14:50 18,8 C 21,1 C 15,6 C 55 % 1030,2 hPa 0,0 l/m 2 min 0 min 485 W/m 6,4 km/h (2 Bft) 95,65 %
21.09.2021 14:52 18,8 C 21,1 C 15,6 C 55 % 1030,2 hPa 0,0 l/m 2 min 0 min 498 W/m 3,2 km/h (1 Bft) 95,74 %
21.09.2021 14:54 18,9 C 20,6 C 15,6 C 55 % 1030,2 hPa 0,0 l/m 2 min 0 min 498 W/m 3,2 km/h (1 Bft) 93,62 %
21.09.2021 14:56 18,9 C 20,6 C 15,6 C 55 % 1030,1 hPa 0,0 l/m 2 min 0 min 557 W/m 6,4 km/h (2 Bft) 95,74 %
21.09.2021 14:58 19,0 C 20,6 C 15,6 C 55 % 1030,2 hPa 0,0 l/m 2 min 0 min 568 W/m 6,4 km/h (2 Bft) 95,74 %
21.09.2021 15:00 19,0 C 20,6 C 15,6 C 55 % 1030,1 hPa 0,0 l/m 2 min 0 min 478 W/m 6,4 km/h (2 Bft) 93,62 %
21.09.2021 15:02 19,0 C 20,0 C 15,6 C 54 % 1030,2 hPa 0,0 l/m 2 min 0 min 404 W/m 6,4 km/h (2 Bft) 93,62 %
21.09.2021 15:04 19,0 C 20,0 C 15,0 C 55 % 1030,2 hPa 0,0 l/m 2 min 0 min 440 W/m 6,4 km/h (2 Bft) 95,74 %
21.09.2021 15:06 18,9 C 20,0 C 15,0 C 55 % 1030,1 hPa 0,0 l/m 2 min 0 min 499 W/m 6,4 km/h (2 Bft) 95,74 %
21.09.2021 15:08 18,9 C 20,0 C 15,0 C 55 % 1030,1 hPa 0,0 l/m 2 min 0 min 530 W/m 6,4 km/h (2 Bft) 97,87 %
21.09.2021 15:10 18,9 C 20,0 C 15,6 C 55 % 1030,1 hPa 0,0 l/m 2 min 0 min 522 W/m 3,2 km/h (1 Bft) 95,74 %
21.09.2021 15:12 18,9 C 20,0 C 15,6 C 55 % 1030,2 hPa 0,0 l/m 2 min 0 min 456 W/m 6,4 km/h (2 Bft) 91,49 %
21.09.2021 15:14 18,9 C 20,6 C 15,6 C 56 % 1030,1 hPa 0,0 l/m 2 min 0 min 485 W/m 3,2 km/h (1 Bft) 95,65 %
21.09.2021 15:16 19,0 C 20,6 C 15,6 C 56 % 1030,1 hPa 0,0 l/m 2 min 0 min 511 W/m 3,2 km/h (1 Bft) 93,62 %
21.09.2021 15:18 19,1 C 20,6 C 15,6 C 55 % 1030,1 hPa 0,0 l/m 2 min 0 min 506 W/m 6,4 km/h (2 Bft) 93,62 %
21.09.2021 15:20 19,1 C 20,6 C 15,6 C 54 % 1030,1 hPa 0,0 l/m 2 min 0 min 489 W/m 6,4 km/h (2 Bft) 95,74 %
21.09.2021 15:22 19,1 C 20,6 C 15,6 C 55 % 1030,2 hPa 0,0 l/m 2 min 0 min 484 W/m 9,7 km/h (2 Bft) 93,62 %
21.09.2021 15:24 19,1 C 20,6 C 15,6 C 55 % 1030,1 hPa 0,0 l/m 2 min 0 min 473 W/m 6,4 km/h (2 Bft) 95,74 %
21.09.2021 15:26 19,1 C 20,6 C 15,6 C 56 % 1030,1 hPa 0,0 l/m 2 min 0 min 431 W/m 6,4 km/h (2 Bft) 95,65 %
21.09.2021 15:28 19,1 C 20,0 C 15,6 C 55 % 1030,0 hPa 0,0 l/m 2 min 0 min 423 W/m 6,4 km/h (2 Bft) 95,74 %
21.09.2021 15:30 19,1 C 20,0 C 15,6 C 55 % 1030,0 hPa 0,0 l/m 2 min 0 min 423 W/m 6,4 km/h (2 Bft) 93,62 %
21.09.2021 15:32 19,1 C 20,0 C 15,6 C 55 % 1030,0 hPa 0,0 l/m 2 min 0 min 419 W/m 12,9 km/h (3 Bft) 97,37 %
21.09.2021 15:34 19,0 C 20,0 C 15,6 C 55 % 1029,9 hPa 0,0 l/m 2 min 0 min 418 W/m 9,7 km/h (2 Bft) 95,74 %
21.09.2021 15:36 19,0 C 20,0 C 15,6 C 56 % 1029,9 hPa 0,0 l/m 2 min 0 min 417 W/m 9,7 km/h (2 Bft) 97,83 %
21.09.2021 15:38 19,0 C 20,0 C 15,6 C 56 % 1029,9 hPa 0,0 l/m 2 min 0 min 434 W/m 9,7 km/h (2 Bft) 97,87 %
21.09.2021 15:40 19,0 C 20,0 C 15,6 C 55 % 1029,9 hPa 0,0 l/m 2 min 0 min 456 W/m 12,9 km/h (3 Bft) 97,87 %
21.09.2021 15:42 19,0 C 20,6 C 15,6 C 55 % 1029,9 hPa 0,0 l/m 2 min 0 min 451 W/m 9,7 km/h (2 Bft) 97,87 %
21.09.2021 15:44 19,0 C 20,0 C 15,6 C 54 % 1029,8 hPa 0,0 l/m 2 min 0 min 427 W/m 9,7 km/h (2 Bft) 97,87 %
21.09.2021 15:46 19,0 C 20,6 C 15,6 C 55 % 1029,9 hPa 0,0 l/m 2 min 0 min 443 W/m 6,4 km/h (2 Bft) 97,87 %
21.09.2021 15:48 19,0 C 20,6 C 15,6 C 55 % 1029,9 hPa 0,0 l/m 2 min 0 min 459 W/m 6,4 km/h (2 Bft) 97,83 %
21.09.2021 15:50 19,0 C 20,6 C 15,6 C 54 % 1029,9 hPa 0,0 l/m 2 min 0 min 477 W/m 6,4 km/h (2 Bft) 97,87 %
21.09.2021 15:52 19,0 C 20,6 C 15,6 C 55 % 1029,9 hPa 0,0 l/m 2 min 0 min 486 W/m 6,4 km/h (2 Bft) 97,87 %
21.09.2021 15:54 19,1 C 20,6 C 15,6 C 55 % 1029,9 hPa 0,0 l/m 2 min 0 min 477 W/m 6,4 km/h (2 Bft) 95,74 %
21.09.2021 15:56 19,1 C 20,6 C 15,6 C 55 % 1029,9 hPa 0,0 l/m 2 min 0 min 442 W/m 9,7 km/h (2 Bft) 97,87 %
21.09.2021 15:58 19,1 C 20,6 C 15,6 C 55 % 1029,8 hPa 0,0 l/m 2 min 0 min 409 W/m 6,4 km/h (2 Bft) 100,00 %
21.09.2021 16:00 19,1 C 20,6 C 15,6 C 54 % 1029,8 hPa 0,0 l/m 2 min 0 min 394 W/m 3,2 km/h (1 Bft) 100,00 %
21.09.2021 16:02 19,2 C 20,6 C 15,6 C 54 % 1029,8 hPa 0,0 l/m 2 min 0 min 360 W/m 3,2 km/h (1 Bft) 100,00 %
21.09.2021 16:04 19,2 C 20,0 C 15,6 C 53 % 1029,8 hPa 0,0 l/m 2 min 0 min 338 W/m 3,2 km/h (1 Bft) 100,00 %
21.09.2021 16:06 19,2 C 20,6 C 15,6 C 54 % 1029,8 hPa 0,0 l/m 2 min 0 min 370 W/m 6,4 km/h (2 Bft) 100,00 %
21.09.2021 16:08 19,3 C 20,6 C 15,6 C 54 % 1029,7 hPa 0,0 l/m 2 min 0 min 382 W/m 6,4 km/h (2 Bft) 97,87 %
21.09.2021 16:10 19,2 C 21,1 C 15,6 C 54 % 1029,8 hPa 0,0 l/m 2 min 0 min 389 W/m 3,2 km/h (1 Bft) 100,00 %
21.09.2021 16:12 19,2 C 21,1 C 15,6 C 53 % 1029,8 hPa 0,0 l/m 2 min 0 min 399 W/m 6,4 km/h (2 Bft) 100,00 %
21.09.2021 16:14 19,1 C 21,1 C 15,6 C 53 % 1029,8 hPa 0,0 l/m 2 min 0 min 336 W/m 6,4 km/h (2 Bft) 100,00 %
21.09.2021 16:16 19,0 C 21,1 C 15,6 C 54 % 1029,7 hPa 0,0 l/m 2 min 0 min 347 W/m 3,2 km/h (1 Bft) 100,00 %
21.09.2021 16:18 19,0 C 21,1 C 15,6 C 55 % 1029,8 hPa 0,0 l/m 2 min 0 min 373 W/m 6,4 km/h (2 Bft) 100,00 %
21.09.2021 16:20 19,0 C 21,1 C 15,6 C 54 % 1029,8 hPa 0,0 l/m 2 min 0 min 341 W/m 3,2 km/h (1 Bft) 100,00 %
21.09.2021 16:22 19,0 C 21,7 C 15,6 C 56 % 1029,8 hPa 0,0 l/m 2 min 0 min 325 W/m 6,4 km/h (2 Bft) 100,00 %
21.09.2021 16:24 19,0 C 22,2 C 15,6 C 56 % 1029,8 hPa 0,0 l/m 2 min 0 min 349 W/m 6,4 km/h (2 Bft) 100,00 %
21.09.2021 16:26 19,0 C 22,2 C 15,6 C 55 % 1029,7 hPa 0,0 l/m 2 min 0 min 376 W/m 6,4 km/h (2 Bft) 100,00 %
21.09.2021 16:28 19,0 C 22,8 C 15,6 C 55 % 1029,7 hPa 0,0 l/m 2 min 0 min 358 W/m 3,2 km/h (1 Bft) 100,00 %
21.09.2021 16:30 19,0 C 23,3 C 15,6 C 55 % 1029,7 hPa 0,0 l/m 2 min 0 min 364 W/m 6,4 km/h (2 Bft) 97,87 %
21.09.2021 16:32 19,0 C 22,8 C 15,6 C 55 % 1029,8 hPa 0,0 l/m 2 min 0 min 338 W/m 6,4 km/h (2 Bft) 100,00 %
21.09.2021 16:34 19,0 C 22,2 C 15,6 C 55 % 1029,8 hPa 0,0 l/m 2 min 0 min 298 W/m 9,7 km/h (2 Bft) 100,00 %
21.09.2021 16:36 19,0 C 22,2 C 15,6 C 55 % 1029,8 hPa 0,0 l/m 2 min 0 min 293 W/m 6,4 km/h (2 Bft) 100,00 %
21.09.2021 16:38 19,0 C 22,2 C 15,6 C 54 % 1029,8 hPa 0,0 l/m 2 min 0 min 328 W/m 6,4 km/h (2 Bft) 100,00 %
21.09.2021 16:40 18,9 C 22,8 C 15,6 C 55 % 1029,8 hPa 0,0 l/m 2 min 0 min 354 W/m 6,4 km/h (2 Bft) 100,00 %
21.09.2021 16:42 19,0 C 22,8 C 15,6 C 55 % 1029,8 hPa 0,0 l/m 2 min 0 min 338 W/m 3,2 km/h (1 Bft) 100,00 %
21.09.2021 16:44 19,0 C 22,8 C 15,6 C 55 % 1029,8 hPa 0,0 l/m 2 min 0 min 335 W/m 3,2 km/h (1 Bft) 97,87 %
21.09.2021 16:46 19,0 C 23,3 C 15,6 C 55 % 1029,8 hPa 0,0 l/m 2 min 0 min 330 W/m 3,2 km/h (1 Bft) 100,00 %
21.09.2021 16:48 19,1 C 22,8 C 15,6 C 54 % 1029,8 hPa 0,0 l/m 2 min 0 min 314 W/m 3,2 km/h (1 Bft) 100,00 %
21.09.2021 16:50 19,1 C 23,3 C 15,6 C 54 % 1029,7 hPa 0,0 l/m 2 min 0 min 304 W/m 3,2 km/h (1 Bft) 100,00 %
21.09.2021 16:52 19,1 C 23,3 C 15,6 C 54 % 1029,7 hPa 0,0 l/m 2 min 0 min 312 W/m 3,2 km/h (1 Bft) 100,00 %
21.09.2021 16:54 19,2 C 23,3 C 15,6 C 55 % 1029,8 hPa 0,0 l/m 2 min 0 min 290 W/m 6,4 km/h (2 Bft) 97,87 %
21.09.2021 16:56 19,2 C 22,2 C 15,6 C 55 % 1029,8 hPa 0,0 l/m 2 min 0 min 223 W/m 6,4 km/h (2 Bft) 100,00 %
21.09.2021 16:58 19,2 C 22,2 C 15,0 C 54 % 1029,8 hPa 0,0 l/m 2 min 0 min 237 W/m 12,9 km/h (3 Bft) 100,00 %
21.09.2021 17:00 19,1 C 22,2 C 15,0 C 55 % 1029,8 hPa 0,0 l/m 2 min 0 min 253 W/m 12,9 km/h (3 Bft) 100,00 %
21.09.2021 17:02 19,1 C 22,2 C 15,0 C 56 % 1029,9 hPa 0,0 l/m 2 min 0 min 304 W/m 12,9 km/h (3 Bft) 100,00 %
21.09.2021 17:04 19,1 C 22,8 C 15,0 C 56 % 1029,9 hPa 0,0 l/m 2 min 0 min 328 W/m 9,7 km/h (2 Bft) 100,00 %
21.09.2021 17:06 19,0 C 23,3 C 15,0 C 57 % 1029,9 hPa 0,0 l/m 2 min 0 min 306 W/m 6,4 km/h (2 Bft) 97,87 %
21.09.2021 17:08 19,0 C 22,8 C 15,0 C 57 % 1029,9 hPa 0,0 l/m 2 min 0 min 273 W/m 9,7 km/h (2 Bft) 100,00 %
21.09.2021 17:10 19,0 C 22,8 C 15,0 C 57 % 1029,9 hPa 0,0 l/m 2 min 0 min 274 W/m 6,4 km/h (2 Bft) 100,00 %
21.09.2021 17:12 18,9 C 22,2 C 15,0 C 58 % 1029,9 hPa 0,0 l/m 2 min 0 min 259 W/m 12,9 km/h (3 Bft) 100,00 %
21.09.2021 17:14 18,9 C 21,1 C 15,0 C 57 % 1029,9 hPa 0,0 l/m 2 min 0 min 237 W/m 16,1 km/h (3 Bft) 97,87 %
21.09.2021 17:16 18,9 C 21,1 C 15,0 C 58 % 1030,0 hPa 0,0 l/m 2 min 0 min 239 W/m 12,9 km/h (3 Bft) 97,92 %
21.09.2021 17:18 18,8 C 21,7 C 15,0 C 58 % 1029,9 hPa 0,0 l/m 2 min 0 min 233 W/m 6,4 km/h (2 Bft) 95,74 %
21.09.2021 17:20 18,8 C 21,1 C 15,0 C 58 % 1029,8 hPa 0,0 l/m 2 min 0 min 228 W/m 9,7 km/h (2 Bft) 97,87 %
21.09.2021 17:22 18,8 C 21,1 C 15,0 C 58 % 1029,8 hPa 0,0 l/m 2 min 0 min 221 W/m 16,1 km/h (3 Bft) 97,87 %
21.09.2021 17:24 18,7 C 20,6 C 15,0 C 58 % 1029,8 hPa 0,0 l/m 2 min 0 min 239 W/m 9,7 km/h (2 Bft) 95,74 %
21.09.2021 17:26 18,6 C 20,0 C 15,0 C 59 % 1029,8 hPa 0,0 l/m 2 min 0 min 193 W/m 6,4 km/h (2 Bft) 97,83 %
21.09.2021 17:28 18,5 C 20,0 C 15,0 C 59 % 1029,9 hPa 0,0 l/m 2 min 0 min 215 W/m 6,4 km/h (2 Bft) 97,87 %
21.09.2021 17:30 18,4 C 19,4 C 15,0 C 59 % 1029,8 hPa 0,0 l/m 2 min 0 min 199 W/m 9,7 km/h (2 Bft) 97,87 %
21.09.2021 17:32 18,4 C 18,9 C 15,0 C 59 % 1029,8 hPa 0,0 l/m 2 min 0 min 153 W/m 9,7 km/h (2 Bft) 95,74 %
21.09.2021 17:34 18,3 C 18,9 C 15,0 C 60 % 1029,9 hPa 0,0 l/m 2 min 0 min 183 W/m 9,7 km/h (2 Bft) 91,49 %
21.09.2021 17:36 18,3 C 19,4 C 15,0 C 60 % 1029,9 hPa 0,0 l/m 2 min 0 min 203 W/m 12,9 km/h (3 Bft) 89,36 %
21.09.2021 17:38 18,3 C 19,4 C 15,0 C 60 % 1030,0 hPa 0,0 l/m 2 min 0 min 171 W/m 12,9 km/h (3 Bft) 93,48 %
21.09.2021 17:40 18,3 C 18,9 C 15,0 C 60 % 1030,0 hPa 0,0 l/m 2 min 0 min 186 W/m 22,5 km/h (4 Bft) 93,62 %
21.09.2021 17:42 18,2 C 18,9 C 15,0 C 60 % 1029,9 hPa 0,0 l/m 2 min 0 min 177 W/m 19,3 km/h (3 Bft) 91,49 %
21.09.2021 17:44 18,2 C 18,9 C 14,5 C 60 % 1030,0 hPa 0,0 l/m 2 min 0 min 156 W/m 16,1 km/h (3 Bft) 93,62 %
21.09.2021 17:46 18,1 C 18,9 C 14,5 C 61 % 1030,0 hPa 0,0 l/m 2 min 0 min 156 W/m 9,7 km/h (2 Bft) 91,49 %
21.09.2021 17:48 18,1 C 18,9 C 14,5 C 61 % 1030,0 hPa 0,0 l/m 2 min 0 min 143 W/m 6,4 km/h (2 Bft) 93,62 %
21.09.2021 17:50 18,1 C 18,3 C 14,5 C 61 % 1030,1 hPa 0,0 l/m 2 min 0 min 141 W/m 12,9 km/h (3 Bft) 93,48 %
21.09.2021 17:52 18,1 C 18,3 C 14,5 C 62 % 1030,1 hPa 0,0 l/m 2 min 0 min 130 W/m 16,1 km/h (3 Bft) 91,49 %
21.09.2021 17:54 18,0 C 17,8 C 14,5 C 62 % 1030,1 hPa 0,0 l/m 0 min 0 min 121 W/m 6,4 km/h (2 Bft) 93,62 %
21.09.2021 17:56 17,9 C 17,8 C 14,5 C 63 % 1030,1 hPa 0,0 l/m 0 min 0 min 114 W/m 16,1 km/h (3 Bft) 93,75 %
21.09.2021 17:58 17,9 C 17,8 C 14,5 C 62 % 1030,1 hPa 0,0 l/m 0 min 0 min 112 W/m 16,1 km/h (3 Bft) 93,62 %
21.09.2021 18:00 17,8 C 17,2 C 14,5 C 62 % 1030,1 hPa 0,0 l/m 0 min 0 min 114 W/m 16,1 km/h (3 Bft) 95,74 %
21.09.2021 18:02 17,8 C 17,2 C 14,5 C 62 % 1030,0 hPa 0,0 l/m 0 min 0 min 110 W/m 9,7 km/h (2 Bft) 95,74 %
21.09.2021 18:04 17,7 C 17,2 C 14,5 C 63 % 1030,1 hPa 0,0 l/m 0 min 0 min 106 W/m 6,4 km/h (2 Bft) 95,74 %
21.09.2021 18:08 17,6 C 17,2 C 14,5 C 64 % 1030,1 hPa 0,0 l/m 0 min 0 min 104 W/m 9,7 km/h (2 Bft) 93,55 %
21.09.2021 18:10 17,6 C 17,2 C 14,5 C 64 % 1030,1 hPa 0,0 l/m 0 min 0 min 99 W/m 12,9 km/h (3 Bft) 95,74 %
21.09.2021 18:12 17,6 C 17,2 C 14,5 C 64 % 1030,1 hPa 0,0 l/m 0 min 0 min 94 W/m 16,1 km/h (3 Bft) 95,74 %
21.09.2021 18:14 17,5 C 17,2 C 13,9 C 64 % 1030,1 hPa 0,0 l/m 0 min 0 min 92 W/m 6,4 km/h (2 Bft) 95,74 %
21.09.2021 18:16 17,5 C 17,2 C 13,9 C 64 % 1030,1 hPa 0,0 l/m 0 min 0 min 93 W/m 3,2 km/h (1 Bft) 97,87 %
21.09.2021 18:18 17,5 C 17,2 C 13,9 C 64 % 1030,0 hPa 0,0 l/m 0 min 0 min 92 W/m 3,2 km/h (1 Bft) 97,87 %
21.09.2021 18:20 17,5 C 17,2 C 13,9 C 64 % 1030,0 hPa 0,0 l/m 0 min 0 min 84 W/m 6,4 km/h (2 Bft) 97,83 %
21.09.2021 18:22 17,4 C 17,2 C 13,9 C 65 % 1030,0 hPa 0,0 l/m 0 min 0 min 81 W/m 6,4 km/h (2 Bft) 100,00 %
21.09.2021 18:24 17,4 C 17,2 C 13,9 C 65 % 1030,0 hPa 0,0 l/m 0 min 0 min 80 W/m 3,2 km/h (1 Bft) 97,87 %
21.09.2021 18:26 17,4 C 16,7 C 13,9 C 65 % 1030,0 hPa 0,0 l/m 0 min 0 min 75 W/m 3,2 km/h (1 Bft) 100,00 %
21.09.2021 18:28 17,3 C 16,7 C 13,9 C 66 % 1030,1 hPa 0,0 l/m 0 min 0 min 70 W/m 6,4 km/h (2 Bft) 100,00 %
21.09.2021 18:30 17,3 C 16,7 C 13,9 C 66 % 1030,1 hPa 0,0 l/m 0 min 0 min 71 W/m 9,7 km/h (2 Bft) 100,00 %
21.09.2021 18:32 17,3 C 16,7 C 13,9 C 65 % 1030,0 hPa 0,0 l/m 0 min 0 min 70 W/m 3,2 km/h (1 Bft) 97,83 %
21.09.2021 18:34 17,2 C 16,7 C 13,9 C 65 % 1030,1 hPa 0,0 l/m 0 min 0 min 63 W/m 3,2 km/h (1 Bft) 100,00 %
21.09.2021 18:36 17,2 C 16,7 C 13,9 C 66 % 1030,0 hPa 0,0 l/m 0 min 0 min 60 W/m 6,4 km/h (2 Bft) 100,00 %
21.09.2021 18:38 17,1 C 16,7 C 13,9 C 66 % 1030,0 hPa 0,0 l/m 0 min 0 min 58 W/m 3,2 km/h (1 Bft) 100,00 %
21.09.2021 18:40 17,1 C 16,7 C 13,4 C 66 % 1030,0 hPa 0,0 l/m 0 min 0 min 56 W/m 6,4 km/h (2 Bft) 97,87 %
21.09.2021 18:42 17,1 C 16,7 C 13,4 C 66 % 1030,0 hPa 0,0 l/m 0 min 0 min 53 W/m 3,2 km/h (1 Bft) 100,00 %
21.09.2021 18:44 17,0 C 16,1 C 13,4 C 66 % 1030,0 hPa 0,0 l/m 0 min 0 min 49 W/m 3,2 km/h (1 Bft) 97,83 %
21.09.2021 18:46 17,0 C 16,1 C 13,4 C 66 % 1030,0 hPa 0,0 l/m 0 min 0 min 47 W/m 6,4 km/h (2 Bft) 97,87 %
21.09.2021 18:48 17,0 C 16,1 C 13,4 C 66 % 1029,9 hPa 0,0 l/m 0 min 0 min 45 W/m 3,2 km/h (1 Bft) 100,00 %
21.09.2021 18:50 16,9 C 16,1 C 13,4 C 67 % 1030,0 hPa 0,0 l/m 0 min 0 min 41 W/m 9,7 km/h (2 Bft) 100,00 %
21.09.2021 18:52 16,9 C 16,1 C 13,4 C 67 % 1030,0 hPa 0,0 l/m 0 min 0 min 40 W/m 9,7 km/h (2 Bft) 97,87 %
21.09.2021 18:54 16,8 C 16,1 C 13,4 C 67 % 1029,9 hPa 0,0 l/m 0 min 0 min 38 W/m 6,4 km/h (2 Bft) 100,00 %
21.09.2021 18:56 16,8 C 16,1 C 13,4 C 67 % 1030,0 hPa 0,0 l/m 0 min 0 min 36 W/m 0,0 km/h (0 Bft) 95,65 %
21.09.2021 18:58 16,8 C 15,6 C 13,4 C 67 % 1029,9 hPa 0,0 l/m 0 min 0 min 33 W/m 0,0 km/h (0 Bft) 100,00 %
21.09.2021 19:00 16,8 C 15,6 C 13,4 C 68 % 1030,0 hPa 0,0 l/m 0 min 0 min 32 W/m 3,2 km/h (1 Bft) 100,00 %
21.09.2021 19:02 16,7 C 15,6 C 13,4 C 67 % 1030,0 hPa 0,0 l/m 0 min 0 min 29 W/m 6,4 km/h (2 Bft) 100,00 %
21.09.2021 19:04 16,7 C 15,6 C 12,8 C 67 % 1030,0 hPa 0,0 l/m 0 min 0 min 26 W/m 0,0 km/h (0 Bft) 100,00 %
21.09.2021 19:06 16,6 C 15,6 C 12,8 C 68 % 1030,0 hPa 0,0 l/m 0 min 0 min 25 W/m 3,2 km/h (1 Bft) 100,00 %
21.09.2021 19:08 16,6 C 15,6 C 12,8 C 68 % 1030,1 hPa 0,0 l/m 0 min 0 min 22 W/m 0,0 km/h (0 Bft) 100,00 %
21.09.2021 19:10 16,6 C 15,6 C 12,8 C 68 % 1030,1 hPa 0,0 l/m 0 min 0 min 19 W/m 0,0 km/h (0 Bft) 100,00 %
21.09.2021 19:12 16,6 C 15,6 C 12,8 C 68 % 1030,1 hPa 0,0 l/m 0 min 0 min 18 W/m 3,2 km/h (1 Bft) 100,00 %
21.09.2021 19:14 16,6 C 15,6 C 12,8 C 68 % 1030,1 hPa 0,0 l/m 0 min 0 min 16 W/m 0,0 km/h (0 Bft) 100,00 %
21.09.2021 19:16 16,6 C 15,6 C 12,8 C 68 % 1030,1 hPa 0,0 l/m 0 min 0 min 14 W/m 0,0 km/h (0 Bft) 100,00 %
21.09.2021 19:18 16,5 C 15,0 C 12,3 C 68 % 1030,1 hPa 0,0 l/m 0 min 0 min 12 W/m 0,0 km/h (0 Bft) 97,87 %
21.09.2021 19:20 16,5 C 15,0 C 12,3 C 68 % 1030,2 hPa 0,0 l/m 0 min 0 min 11 W/m 0,0 km/h (0 Bft) 100,00 %
21.09.2021 19:22 16,5 C 15,0 C 12,3 C 68 % 1030,2 hPa 0,0 l/m 0 min 0 min 9 W/m 0,0 km/h (0 Bft) 95,74 %
21.09.2021 19:24 16,4 C 15,0 C 12,3 C 68 % 1030,2 hPa 0,0 l/m 0 min 0 min 8 W/m 0,0 km/h (0 Bft) 100,00 %
21.09.2021 19:26 16,4 C 15,0 C 12,3 C 69 % 1030,2 hPa 0,0 l/m 0 min 0 min 6 W/m 0,0 km/h (0 Bft) 97,87 %
21.09.2021 19:28 16,4 C 14,4 C 12,3 C 69 % 1030,3 hPa 0,0 l/m 0 min 0 min 5 W/m 0,0 km/h (0 Bft) 95,74 %
21.09.2021 19:30 16,4 C 14,4 C 12,3 C 69 % 1030,2 hPa 0,0 l/m 0 min 0 min 2 W/m 0,0 km/h (0 Bft) 97,87 %
21.09.2021 19:32 16,3 C 14,4 C 12,3 C 69 % 1030,2 hPa 0,0 l/m 0 min 0 min 0 W/m 0,0 km/h (0 Bft) 97,83 %
21.09.2021 19:34 16,3 C 14,4 C 11,7 C 69 % 1030,2 hPa 0,0 l/m 0 min 0 min 0 W/m 0,0 km/h (0 Bft) 97,87 %
21.09.2021 19:36 16,3 C 14,4 C 11,7 C 69 % 1030,3 hPa 0,0 l/m 0 min 0 min 0 W/m 0,0 km/h (0 Bft) 97,87 %
21.09.2021 19:38 16,2 C 14,4 C 11,7 C 69 % 1030,3 hPa 0,0 l/m 0 min 0 min 0 W/m 0,0 km/h (0 Bft) 95,74 %
21.09.2021 19:40 16,2 C 14,4 C 11,7 C 69 % 1030,2 hPa 0,0 l/m 0 min 0 min 0 W/m 0,0 km/h (0 Bft) 97,87 %
21.09.2021 19:42 16,1 C 14,4 C 11,7 C 70 % 1030,2 hPa 0,0 l/m 0 min 0 min 0 W/m 3,2 km/h (1 Bft) 97,83 %
21.09.2021 19:44 16,1 C 13,9 C 11,7 C 70 % 1030,1 hPa 0,0 l/m 0 min 0 min 0 W/m 0,0 km/h (0 Bft) 97,87 %
21.09.2021 19:46 16,0 C 13,9 C 11,7 C 70 % 1030,1 hPa 0,0 l/m 0 min 0 min 0 W/m 0,0 km/h (0 Bft) 97,87 %
21.09.2021 19:48 16,0 C 13,9 C 11,7 C 70 % 1030,1 hPa 0,0 l/m 0 min 0 min 0 W/m 3,2 km/h (1 Bft) 97,87 %
21.09.2021 19:50 15,9 C 13,9 C 11,7 C 70 % 1030,1 hPa 0,0 l/m 0 min 0 min 0 W/m 0,0 km/h (0 Bft) 97,87 %
21.09.2021 19:52 15,9 C 13,9 C 11,7 C 70 % 1030,2 hPa 0,0 l/m 0 min 0 min 0 W/m 3,2 km/h (1 Bft) 97,87 %
21.09.2021 19:54 15,9 C 13,9 C 11,7 C 70 % 1030,2 hPa 0,0 l/m 0 min 0 min 0 W/m 3,2 km/h (1 Bft) 97,83 %
21.09.2021 19:56 15,8 C 13,9 C 11,1 C 70 % 1030,3 hPa 0,0 l/m 0 min 0 min 0 W/m 0,0 km/h (0 Bft) 97,87 %
21.09.2021 19:58 15,8 C 13,9 C 11,1 C 71 % 1030,4 hPa 0,0 l/m 0 min 0 min 0 W/m 0,0 km/h (0 Bft) 100,00 %
21.09.2021 20:00 15,8 C 13,9 C 11,1 C 71 % 1030,4 hPa 0,0 l/m 0 min 0 min 0 W/m 0,0 km/h (0 Bft) 97,87 %
21.09.2021 20:02 15,7 C 13,3 C 11,1 C 72 % 1030,4 hPa 0,0 l/m 0 min 0 min 0 W/m 0,0 km/h (0 Bft) 100,00 %
21.09.2021 20:04 15,6 C 13,3 C 11,1 C 72 % 1030,5 hPa 0,0 l/m 0 min 0 min 0 W/m 0,0 km/h (0 Bft) 100,00 %
21.09.2021 20:06 15,6 C 13,3 C 11,1 C 72 % 1030,5 hPa 0,0 l/m 0 min 0 min 0 W/m 0,0 km/h (0 Bft) 100,00 %
21.09.2021 20:08 15,5 C 13,3 C 11,1 C 73 % 1030,6 hPa 0,0 l/m 0 min 0 min 0 W/m 0,0 km/h (0 Bft) 100,00 %
21.09.2021 20:10 15,5 C 13,3 C 11,1 C 74 % 1030,6 hPa 0,0 l/m 0 min 0 min 0 W/m 0,0 km/h (0 Bft) 97,87 %
21.09.2021 20:12 15,4 C 13,3 C 10,6 C 74 % 1030,7 hPa 0,0 l/m 0 min 0 min 0 W/m 0,0 km/h (0 Bft) 100,00 %
21.09.2021 20:14 15,4 C 13,3 C 10,6 C 74 % 1030,6 hPa 0,0 l/m 0 min 0 min 0 W/m 0,0 km/h (0 Bft) 97,87 %
21.09.2021 20:16 15,3 C 13,3 C 10,6 C 74 % 1030,6 hPa 0,0 l/m 0 min 0 min 0 W/m 0,0 km/h (0 Bft) 97,87 %
21.09.2021 20:18 15,2 C 13,3 C 10,6 C 74 % 1030,6 hPa 0,0 l/m 0 min 0 min 0 W/m 0,0 km/h (0 Bft) 97,83 %
21.09.2021 20:20 15,1 C 13,3 C 10,6 C 75 % 1030,7 hPa 0,0 l/m 0 min 0 min 0 W/m 0,0 km/h (0 Bft) 97,87 %
21.09.2021 20:22 15,1 C 12,8 C 10,6 C 75 % 1030,7 hPa 0,0 l/m 0 min 0 min 0 W/m 0,0 km/h (0 Bft) 95,74 %
21.09.2021 20:24 15,0 C 12,8 C 10,6 C 75 % 1030,7 hPa 0,0 l/m 0 min 0 min 0 W/m 0,0 km/h (0 Bft) 97,87 %
21.09.2021 20:26 15,0 C 12,8 C 10,6 C 75 % 1030,8 hPa 0,0 l/m 0 min 0 min 0 W/m 0,0 km/h (0 Bft) 95,74 %
21.09.2021 20:28 14,9 C 12,8 C 10,6 C 76 % 1030,8 hPa 0,0 l/m 0 min 0 min 0 W/m 0,0 km/h (0 Bft) 93,62 %
21.09.2021 20:30 14,9 C 12,8 C 10,6 C 76 % 1030,8 hPa 0,0 l/m 0 min 0 min 0 W/m 0,0 km/h (0 Bft) 95,65 %
21.09.2021 20:32 14,9 C 12,8 C 10,6 C 76 % 1030,8 hPa 0,0 l/m 0 min 0 min 0 W/m 0,0 km/h (0 Bft) 95,74 %
21.09.2021 20:34 14,8 C 12,8 C 10,6 C 77 % 1030,9 hPa 0,0 l/m 0 min 0 min 0 W/m 0,0 km/h (0 Bft) 91,49 %
21.09.2021 20:36 14,7 C 12,8 C 10,6 C 77 % 1030,9 hPa 0,0 l/m 0 min 0 min 0 W/m 0,0 km/h (0 Bft) 95,74 %
21.09.2021 20:38 14,6 C 12,8 C 10,6 C 77 % 1030,9 hPa 0,0 l/m 0 min 0 min 0 W/m 0,0 km/h (0 Bft) 95,74 %
21.09.2021 20:40 14,6 C 12,8 C 10,6 C 77 % 1030,9 hPa 0,0 l/m 0 min 0 min 0 W/m 0,0 km/h (0 Bft) 95,74 %
21.09.2021 20:42 14,5 C 12,8 C 10,6 C 77 % 1030,9 hPa 0,0 l/m 0 min 0 min 0 W/m 0,0 km/h (0 Bft) 95,65 %
21.09.2021 20:44 14,5 C 12,8 C 10,6 C 78 % 1030,9 hPa 0,0 l/m 0 min 0 min 0 W/m 0,0 km/h (0 Bft) 93,62 %
21.09.2021 20:46 14,4 C 12,8 C 10,6 C 78 % 1030,8 hPa 0,0 l/m 0 min 0 min 0 W/m 0,0 km/h (0 Bft) 95,74 %
21.09.2021 20:48 14,3 C 12,2 C 10,0 C 78 % 1030,8 hPa 0,0 l/m 0 min 0 min 0 W/m 0,0 km/h (0 Bft) 95,74 %
21.09.2021 20:50 14,3 C 12,2 C 10,0 C 78 % 1030,8 hPa 0,0 l/m 0 min 0 min 0 W/m 0,0 km/h (0 Bft) 97,87 %
21.09.2021 20:52 14,2 C 12,2 C 10,0 C 79 % 1030,9 hPa 0,0 l/m 0 min 0 min 0 W/m 0,0 km/h (0 Bft) 97,87 %
21.09.2021 20:54 14,2 C 12,2 C 10,0 C 79 % 1030,9 hPa 0,0 l/m 0 min 0 min 0 W/m 0,0 km/h (0 Bft) 97,83 %
21.09.2021 20:56 14,2 C 12,2 C 10,0 C 79 % 1031,0 hPa 0,0 l/m 0 min 0 min 0 W/m 0,0 km/h (0 Bft) 97,87 %
21.09.2021 20:58 14,2 C 12,2 C 10,0 C 79 % 1030,9 hPa 0,0 l/m 0 min 0 min 0 W/m 0,0 km/h (0 Bft) 97,87 %
21.09.2021 21:00 14,1 C 12,2 C 10,0 C 79 % 1030,8 hPa 0,0 l/m 0 min 0 min 0 W/m 0,0 km/h (0 Bft) 95,74 %
21.09.2021 21:02 14,0 C 12,2 C 10,0 C 79 % 1030,9 hPa 0,0 l/m 0 min 0 min 0 W/m 0,0 km/h (0 Bft) 93,62 %
21.09.2021 21:04 14,0 C 12,2 C 10,0 C 79 % 1030,9 hPa 0,0 l/m 0 min 0 min 0 W/m 0,0 km/h (0 Bft) 97,87 %
21.09.2021 21:06 14,0 C 12,2 C 10,0 C 80 % 1030,9 hPa 0,0 l/m 0 min 0 min 0 W/m 0,0 km/h (0 Bft) 95,65 %
21.09.2021 21:08 13,9 C 12,2 C 10,0 C 80 % 1030,9 hPa 0,0 l/m 0 min 0 min 0 W/m 0,0 km/h (0 Bft) 95,74 %
21.09.2021 21:10 13,9 C 12,2 C 10,0 C 80 % 1030,9 hPa 0,0 l/m 0 min 0 min 0 W/m 0,0 km/h (0 Bft) 93,62 %
21.09.2021 21:12 13,8 C 12,2 C 10,0 C 80 % 1030,9 hPa 0,0 l/m 0 min 0 min 0 W/m 0,0 km/h (0 Bft) 93,62 %
21.09.2021 21:14 13,8 C 11,7 C 10,0 C 81 % 1030,9 hPa 0,0 l/m 0 min 0 min 0 W/m 0,0 km/h (0 Bft) 95,74 %
21.09.2021 21:16 13,7 C 11,7 C 10,0 C 81 % 1030,9 hPa 0,0 l/m 0 min 0 min 0 W/m 0,0 km/h (0 Bft) 95,65 %
21.09.2021 21:18 13,6 C 11,7 C 10,0 C 81 % 1030,9 hPa 0,0 l/m 0 min 0 min 0 W/m 0,0 km/h (0 Bft) 95,74 %
21.09.2021 21:20 13,6 C 11,7 C 10,0 C 81 % 1030,9 hPa 0,0 l/m 0 min 0 min 0 W/m 0,0 km/h (0 Bft) 93,62 %
21.09.2021 21:22 13,5 C 11,7 C 9,5 C 81 % 1030,9 hPa 0,0 l/m 0 min 0 min 0 W/m 0,0 km/h (0 Bft) 95,74 %
21.09.2021 21:24 13,5 C 11,7 C 9,5 C 82 % 1030,9 hPa 0,0 l/m 0 min 0 min 0 W/m 0,0 km/h (0 Bft) 93,62 %
21.09.2021 21:26 13,5 C 11,7 C 9,5 C 82 % 1031,0 hPa 0,0 l/m 0 min 0 min 0 W/m 0,0 km/h (0 Bft) 95,74 %
21.09.2021 21:28 13,4 C 11,7 C 9,5 C 82 % 1031,0 hPa 0,0 l/m 0 min 0 min 0 W/m 0,0 km/h (0 Bft) 95,65 %
21.09.2021 21:30 13,4 C 11,7 C 9,5 C 82 % 1030,9 hPa 0,0 l/m 0 min 0 min 0 W/m 0,0 km/h (0 Bft) 97,87 %
21.09.2021 21:32 13,3 C 11,7 C 9,5 C 82 % 1031,0 hPa 0,0 l/m 0 min 0 min 0 W/m 0,0 km/h (0 Bft) 95,74 %
21.09.2021 21:34 13,3 C 11,7 C 9,5 C 83 % 1031,0 hPa 0,0 l/m 0 min 0 min 0 W/m 0,0 km/h (0 Bft) 97,87 %
21.09.2021 21:36 13,3 C 11,7 C 9,5 C 83 % 1031,0 hPa 0,0 l/m 0 min 0 min 0 W/m 0,0 km/h (0 Bft) 97,87 %
21.09.2021 21:38 13,2 C 11,7 C 9,5 C 83 % 1031,1 hPa 0,0 l/m 0 min 0 min 0 W/m 0,0 km/h (0 Bft) 100,00 %
21.09.2021 21:40 13,1 C 11,1 C 9,5 C 83 % 1031,1 hPa 0,0 l/m 0 min 0 min 0 W/m 0,0 km/h (0 Bft) 95,65 %
21.09.2021 21:42 13,1 C 11,1 C 9,5 C 83 % 1031,1 hPa 0,0 l/m 0 min 0 min 0 W/m 0,0 km/h (0 Bft) 100,00 %
21.09.2021 21:44 13,0 C 11,7 C 9,5 C 83 % 1031,1 hPa 0,0 l/m 0 min 0 min 0 W/m 0,0 km/h (0 Bft) 100,00 %
21.09.2021 21:46 13,0 C 11,7 C 9,5 C 83 % 1031,1 hPa 0,0 l/m 0 min 0 min 0 W/m 0,0 km/h (0 Bft) 97,87 %
21.09.2021 21:48 13,0 C 11,1 C 9,5 C 83 % 1031,2 hPa 0,0 l/m 0 min 0 min 0 W/m 0,0 km/h (0 Bft) 100,00 %
21.09.2021 21:50 13,0 C 11,1 C 9,5 C 83 % 1031,1 hPa 0,0 l/m 0 min 0 min 0 W/m 0,0 km/h (0 Bft) 97,87 %
21.09.2021 21:52 12,9 C 11,1 C 9,5 C 83 % 1031,0 hPa 0,0 l/m 0 min 0 min 0 W/m 0,0 km/h (0 Bft) 100,00 %
21.09.2021 21:54 12,9 C 11,7 C 9,5 C 83 % 1031,0 hPa 0,0 l/m 0 min 0 min 0 W/m 0,0 km/h (0 Bft) 100,00 %
21.09.2021 21:56 12,8 C 11,1 C 9,5 C 84 % 1030,9 hPa 0,0 l/m 0 min 0 min 0 W/m 0,0 km/h (0 Bft) 100,00 %
21.09.2021 21:58 12,8 C 11,7 C 9,5 C 84 % 1031,0 hPa 0,0 l/m 0 min 0 min 0 W/m 0,0 km/h (0 Bft) 97,87 %
21.09.2021 22:00 12,7 C 11,7 C 9,5 C 84 % 1030,9 hPa 0,0 l/m 0 min 0 min 0 W/m 0,0 km/h (0 Bft) 97,87 %
21.09.2021 22:02 12,6 C 11,1 C 9,5 C 84 % 1030,9 hPa 0,0 l/m 0 min 0 min 0 W/m 0,0 km/h (0 Bft) 100,00 %
21.09.2021 22:04 12,6 C 11,1 C 9,5 C 84 % 1031,0 hPa 0,0 l/m 0 min 0 min 0 W/m 0,0 km/h (0 Bft) 100,00 %
21.09.2021 22:06 12,6 C 11,1 C 9,5 C 84 % 1031,0 hPa 0,0 l/m 0 min 0 min 0 W/m 0,0 km/h (0 Bft) 100,00 %
21.09.2021 22:08 12,6 C 11,1 C 9,5 C 84 % 1031,0 hPa 0,0 l/m 0 min 0 min 0 W/m 0,0 km/h (0 Bft) 97,87 %
21.09.2021 22:10 12,5 C 11,1 C 9,5 C 84 % 1031,0 hPa 0,0 l/m 0 min 0 min 0 W/m 0,0 km/h (0 Bft) 93,62 %
21.09.2021 22:12 12,5 C 11,1 C 9,5 C 84 % 1031,1 hPa 0,0 l/m 0 min 0 min 0 W/m 0,0 km/h (0 Bft) 97,87 %
21.09.2021 22:14 12,5 C 11,1 C 9,5 C 84 % 1031,1 hPa 0,0 l/m 0 min 0 min 0 W/m 0,0 km/h (0 Bft) 95,74 %
21.09.2021 22:16 12,4 C 11,1 C 9,5 C 84 % 1031,1 hPa 0,0 l/m 0 min 0 min 0 W/m 0,0 km/h (0 Bft) 95,65 %
21.09.2021 22:18 12,4 C 11,1 C 9,5 C 85 % 1031,1 hPa 0,0 l/m 0 min 0 min 0 W/m 0,0 km/h (0 Bft) 97,87 %
21.09.2021 22:20 12,4 C 11,1 C 9,5 C 85 % 1031,1 hPa 0,0 l/m 0 min 0 min 0 W/m 0,0 km/h (0 Bft) 95,74 %
21.09.2021 22:22 12,4 C 11,1 C 8,9 C 85 % 1031,1 hPa 0,0 l/m 0 min 0 min 0 W/m 0,0 km/h (0 Bft) 97,87 %
21.09.2021 22:24 12,4 C 11,1 C 8,9 C 85 % 1031,2 hPa 0,0 l/m 0 min 0 min 0 W/m 0,0 km/h (0 Bft) 97,87 %
21.09.2021 22:26 12,3 C 11,1 C 9,5 C 85 % 1031,2 hPa 0,0 l/m 0 min 0 min 0 W/m 0,0 km/h (0 Bft) 97,87 %
21.09.2021 22:28 12,3 C 11,1 C 9,5 C 85 % 1031,1 hPa 0,0 l/m 0 min 0 min 0 W/m 0,0 km/h (0 Bft) 95,65 %
21.09.2021 22:30 12,3 C 11,1 C 8,9 C 85 % 1031,1 hPa 0,0 l/m 0 min 0 min 0 W/m 0,0 km/h (0 Bft) 97,87 %
21.09.2021 22:32 12,3 C 11,1 C 9,5 C 85 % 1031,1 hPa 0,0 l/m 0 min 0 min 0 W/m 0,0 km/h (0 Bft) 97,87 %
21.09.2021 22:34 12,3 C 11,1 C 9,5 C 85 % 1031,1 hPa 0,0 l/m 0 min 0 min 0 W/m 0,0 km/h (0 Bft) 95,74 %
21.09.2021 22:36 12,2 C 11,1 C 9,5 C 86 % 1031,1 hPa 0,0 l/m 0 min 0 min 0 W/m 0,0 km/h (0 Bft) 95,74 %
21.09.2021 22:38 12,2 C 11,1 C 9,5 C 86 % 1031,1 hPa 0,0 l/m 0 min 0 min 0 W/m 0,0 km/h (0 Bft) 97,87 %
21.09.2021 22:40 12,1 C 11,1 C 9,5 C 86 % 1031,1 hPa 0,0 l/m 0 min 0 min 0 W/m 0,0 km/h (0 Bft) 97,83 %
21.09.2021 22:42 12,1 C 11,1 C 9,5 C 86 % 1031,1 hPa 0,0 l/m 0 min 0 min 0 W/m 0,0 km/h (0 Bft) 100,00 %
21.09.2021 22:44 12,1 C 11,1 C 9,5 C 86 % 1031,1 hPa 0,0 l/m 0 min 0 min 0 W/m 0,0 km/h (0 Bft) 97,87 %
21.09.2021 22:46 12,1 C 11,1 C 9,5 C 86 % 1031,0 hPa 0,0 l/m 0 min 0 min 0 W/m 0,0 km/h (0 Bft) 97,87 %
21.09.2021 22:48 12,1 C 11,1 C 9,5 C 86 % 1031,1 hPa 0,0 l/m 0 min 0 min 0 W/m 0,0 km/h (0 Bft) 97,87 %
21.09.2021 22:50 12,1 C 10,6 C 8,9 C 86 % 1031,1 hPa 0,0 l/m 0 min 0 min 0 W/m 0,0 km/h (0 Bft) 97,87 %
21.09.2021 22:52 12,0 C 10,6 C 8,9 C 86 % 1031,0 hPa 0,0 l/m 0 min 0 min 0 W/m 0,0 km/h (0 Bft) 97,83 %
21.09.2021 22:54 12,0 C 10,6 C 8,9 C 86 % 1031,1 hPa 0,0 l/m 0 min 0 min 0 W/m 0,0 km/h (0 Bft) 97,87 %
21.09.2021 22:56 12,0 C 10,6 C 8,9 C 86 % 1031,0 hPa 0,0 l/m 0 min 0 min 0 W/m 0,0 km/h (0 Bft) 95,74 %
21.09.2021 22:58 12,0 C 10,6 C 8,9 C 87 % 1030,9 hPa 0,0 l/m 0 min 0 min 0 W/m 0,0 km/h (0 Bft) 97,87 %
21.09.2021 23:00 12,0 C 10,6 C 8,9 C 87 % 1031,0 hPa 0,0 l/m 0 min 0 min 0 W/m 0,0 km/h (0 Bft) 97,87 %
21.09.2021 23:02 11,9 C 10,6 C 8,9 C 87 % 1031,0 hPa 0,0 l/m 0 min 0 min 0 W/m 0,0 km/h (0 Bft) 95,65 %
21.09.2021 23:04 11,9 C 10,6 C 8,9 C 87 % 1030,9 hPa 0,0 l/m 0 min 0 min 0 W/m 3,2 km/h (1 Bft) 97,87 %
21.09.2021 23:06 11,9 C 10,6 C 8,9 C 87 % 1030,9 hPa 0,0 l/m 0 min 0 min 0 W/m 0,0 km/h (0 Bft) 97,87 %
21.09.2021 23:08 11,9 C 11,1 C 8,9 C 87 % 1030,9 hPa 0,0 l/m 0 min 0 min 0 W/m 0,0 km/h (0 Bft) 97,87 %
21.09.2021 23:10 11,9 C 10,6 C 8,9 C 87 % 1030,9 hPa 0,0 l/m 0 min 0 min 0 W/m 0,0 km/h (0 Bft) 93,62 %
21.09.2021 23:12 11,8 C 10,6 C 8,9 C 87 % 1030,9 hPa 0,0 l/m 0 min 0 min 0 W/m 0,0 km/h (0 Bft) 97,87 %
21.09.2021 23:14 11,8 C 10,6 C 8,9 C 87 % 1030,9 hPa 0,0 l/m 0 min 0 min 0 W/m 0,0 km/h (0 Bft) 100,00 %
21.09.2021 23:16 11,8 C 10,6 C 8,9 C 87 % 1030,8 hPa 0,0 l/m 0 min 0 min 0 W/m 0,0 km/h (0 Bft) 100,00 %
21.09.2021 23:18 11,8 C 10,6 C 8,9 C 87 % 1031,0 hPa 0,0 l/m 0 min 0 min 0 W/m 0,0 km/h (0 Bft) 100,00 %
21.09.2021 23:20 11,8 C 10,6 C 8,9 C 87 % 1030,9 hPa 0,0 l/m 0 min 0 min 0 W/m 0,0 km/h (0 Bft) 100,00 %
21.09.2021 23:22 11,8 C 10,6 C 8,9 C 87 % 1030,9 hPa 0,0 l/m 0 min 0 min 0 W/m 0,0 km/h (0 Bft) 100,00 %
21.09.2021 23:24 11,8 C 10,6 C 8,9 C 87 % 1031,0 hPa 0,0 l/m 0 min 0 min 0 W/m 0,0 km/h (0 Bft) 100,00 %
21.09.2021 23:26 11,8 C 10,6 C 8,9 C 87 % 1031,0 hPa 0,0 l/m 0 min 0 min 0 W/m 0,0 km/h (0 Bft) 100,00 %
21.09.2021 23:28 11,7 C 10,6 C 8,9 C 87 % 1031,0 hPa 0,0 l/m 0 min 0 min 0 W/m 0,0 km/h (0 Bft) 100,00 %
21.09.2021 23:30 11,7 C 10,6 C 8,9 C 88 % 1031,0 hPa 0,0 l/m 0 min 0 min 0 W/m 0,0 km/h (0 Bft) 100,00 %
21.09.2021 23:32 11,7 C 10,6 C 8,9 C 88 % 1030,9 hPa 0,0 l/m 0 min 0 min 0 W/m 0,0 km/h (0 Bft) 97,83 %
21.09.2021 23:34 11,6 C 10,6 C 8,9 C 88 % 1030,9 hPa 0,0 l/m 0 min 0 min 0 W/m 0,0 km/h (0 Bft) 100,00 %
21.09.2021 23:36 11,6 C 10,6 C 8,9 C 88 % 1031,0 hPa 0,0 l/m 0 min 0 min 0 W/m 0,0 km/h (0 Bft) 97,87 %
21.09.2021 23:38 11,6 C 10,6 C 8,9 C 88 % 1031,0 hPa 0,0 l/m 0 min 0 min 0 W/m 0,0 km/h (0 Bft) 100,00 %
21.09.2021 23:40 11,6 C 10,6 C 8,9 C 88 % 1031,0 hPa 0,0 l/m 0 min 0 min 0 W/m 0,0 km/h (0 Bft) 100,00 %
21.09.2021 23:42 11,6 C 10,0 C 8,9 C 88 % 1031,0 hPa 0,0 l/m 0 min 0 min 0 W/m 0,0 km/h (0 Bft) 100,00 %
21.09.2021 23:44 11,5 C 10,0 C 8,9 C 88 % 1031,0 hPa 0,0 l/m 0 min 0 min 0 W/m 0,0 km/h (0 Bft) 100,00 %
21.09.2021 23:46 11,5 C 10,0 C 8,9 C 88 % 1031,0 hPa 0,0 l/m 0 min 0 min 0 W/m 0,0 km/h (0 Bft) 100,00 %
21.09.2021 23:48 11,5 C 10,0 C 8,9 C 88 % 1031,0 hPa 0,0 l/m 0 min 0 min 0 W/m 0,0 km/h (0 Bft) 100,00 %
21.09.2021 23:50 11,5 C 10,0 C 8,9 C 88 % 1031,0 hPa 0,0 l/m 0 min 0 min 0 W/m 0,0 km/h (0 Bft) 97,87 %
21.09.2021 23:52 11,5 C 10,0 C 8,9 C 88 % 1031,0 hPa 0,0 l/m 0 min 0 min 0 W/m 0,0 km/h (0 Bft) 100,00 %
21.09.2021 23:54 11,4 C 10,0 C 8,9 C 88 % 1030,9 hPa 0,0 l/m 0 min 0 min 0 W/m 0,0 km/h (0 Bft) 100,00 %
21.09.2021 23:56 11,4 C 10,0 C 8,9 C 88 % 1030,9 hPa 0,0 l/m 0 min 0 min 0 W/m 0,0 km/h (0 Bft) 100,00 %
21.09.2021 23:58 11,4 C 10,0 C 8,9 C 88 % 1030,9 hPa 0,0 l/m 0 min 0 min 0 W/m 0,0 km/h (0 Bft) 95,74 %
_ Min-Zeit 08:04 07:34 07:24 16:04 00:00 - - - - 04:02 10:26
Minimum _ 10,5 C 9,4 C 8,4 C 53 % 1025,6 hPa - - - - 0,0 km/h (0 Bft) 89,36 %
_ Max-Zeit 16:08 14:00 11:54 08:30 21:48 00:00 12:08 00:00 12:10 17:40 00:04
Maximum _ 19,3 C 23,3 C 20,0 C 89 % 1031,2 hPa 0,0 l/m 4 min 0 min 619 W/m 22,5 km/h
N-NW (4 Bft)
100,00 %
Durchschnitt _ 14,4 C 14,4 C 11,6 C 73 % 1029,2 hPa #0,0 l/m #5:58 h #0 min. 249 W/m 4,3 km/h (1 Bft) 97,56 %
© 2021 W. Hausmann